Time,TemperatureF,DewpointF,PressureIn,WindDirection,WindDirectionDegrees,WindSpeedMPH,WindSpeedGustMPH,Humidity,HourlyPrecipIn,Conditions,Clouds,dailyrainin,SoftwareType,DateUTC
2013-01-10 00:00:00,36.0,31.0,30.49,ENE,59,2.0,3.0,82,0.00,,,0.01,Wunderground v.1.15,2013-01-10 05:00:00,
2013-01-10 00:01:00,35.9,30.9,30.49,ENE,76,0.0,3.0,82,0.00,,,0.01,Wunderground v.1.15,2013-01-10 05:01:00,
2013-01-10 00:03:00,35.7,30.7,30.50,ENE,75,1.0,3.0,82,0.00,,,0.01,Wunderground v.1.15,2013-01-10 05:03:00,
2013-01-10 00:06:00,35.3,30.4,30.50,ENE,76,1.0,3.0,82,0.00,,,0.01,Wunderground v.1.15,2013-01-10 05:06:00,
2013-01-10 00:08:00,35.0,30.1,30.50,ENE,76,0.0,3.0,82,0.00,,,0.01,Wunderground v.1.15,2013-01-10 05:08:00,
2013-01-10 00:09:00,34.9,30.0,30.50,ENE,76,0.0,1.0,82,0.00,,,0.01,Wunderground v.1.15,2013-01-10 05:09:00,
2013-01-10 00:11:00,34.7,30.1,30.50,ENE,77,0.0,1.0,83,0.00,,,0.01,Wunderground v.1.15,2013-01-10 05:11:00,
2013-01-10 00:13:00,34.5,29.9,30.50,ENE,77,1.0,1.0,83,0.00,,,0.01,Wunderground v.1.15,2013-01-10 05:13:00,
2013-01-10 00:17:00,34.3,29.7,30.50,ENE,76,3.0,3.0,83,0.00,,,0.00,Wunderground v.1.15,2013-01-10 05:17:00,
2013-01-10 00:18:00,34.1,29.5,30.50,ENE,76,2.0,3.0,83,0.00,,,0.00,Wunderground v.1.15,2013-01-10 05:18:00,
2013-01-10 00:22:00,33.5,28.9,30.51,ENE,77,1.0,2.0,83,0.00,,,0.00,Wunderground v.1.15,2013-01-10 05:22:00,
2013-01-10 00:23:00,33.3,28.7,30.51,ENE,77,0.0,2.0,83,0.00,,,0.00,Wunderground v.1.15,2013-01-10 05:23:00,
2013-01-10 00:24:00,33.2,28.6,30.51,ENE,77,0.0,2.0,83,0.00,,,0.00,Wunderground v.1.15,2013-01-10 05:24:00,
2013-01-10 00:26:00,32.9,28.6,30.51,ENE,76,0.0,2.0,84,0.00,,,0.00,Wunderground v.1.15,2013-01-10 05:26:00,
2013-01-10 00:29:00,32.6,28.3,30.51,ENE,77,2.0,2.0,84,0.00,,,0.00,Wunderground v.1.15,2013-01-10 05:29:00,
2013-01-10 00:31:00,32.3,28.3,30.52,ENE,76,2.0,2.0,85,0.00,,,0.00,Wunderground v.1.15,2013-01-10 05:31:00,
2013-01-10 00:32:00,32.1,28.1,30.52,ENE,76,2.0,2.0,85,0.00,,,0.00,Wunderground v.1.15,2013-01-10 05:32:00,
2013-01-10 00:33:00,32.0,28.0,30.52,ENE,76,2.0,2.0,85,0.00,,,0.00,Wunderground v.1.15,2013-01-10 05:33:00,
2013-01-10 00:35:00,31.7,27.7,30.52,ENE,77,2.0,2.0,85,0.00,,,0.00,Wunderground v.1.15,2013-01-10 05:35:00,
2013-01-10 00:38:00,31.3,27.6,30.52,ENE,77,2.0,2.0,86,0.00,,,0.00,Wunderground v.1.15,2013-01-10 05:38:00,
2013-01-10 00:41:00,31.0,27.3,30.52,ENE,76,3.0,3.0,86,0.00,,,0.00,Wunderground v.1.15,2013-01-10 05:41:00,
2013-01-10 00:42:00,30.9,27.2,30.52,ENE,77,2.0,3.0,86,0.00,,,0.00,Wunderground v.1.15,2013-01-10 05:42:00,
2013-01-10 00:45:00,30.7,27.3,30.52,ENE,76,3.0,3.0,87,0.00,,,0.00,Wunderground v.1.15,2013-01-10 05:45:00,
2013-01-10 00:46:00,30.6,27.2,30.52,ENE,76,3.0,3.0,87,0.00,,,0.00,Wunderground v.1.15,2013-01-10 05:46:00,
2013-01-10 00:49:00,30.3,26.9,30.52,ENE,76,3.0,3.0,87,0.00,,,0.00,Wunderground v.1.15,2013-01-10 05:49:00,
2013-01-10 00:51:00,30.2,26.8,30.52,ENE,76,3.0,3.0,87,0.00,,,0.00,Wunderground v.1.15,2013-01-10 05:51:00,
2013-01-10 00:52:00,30.1,27.0,30.53,East,82,3.0,3.0,88,0.00,,,0.00,Wunderground v.1.15,2013-01-10 05:52:00,
2013-01-10 00:53:00,30.0,26.9,30.53,East,86,3.0,3.0,88,0.00,,,0.00,Wunderground v.1.15,2013-01-10 05:53:00,
2013-01-10 00:58:00,29.6,26.5,30.53,East,93,3.0,3.0,88,0.00,,,0.00,Wunderground v.1.15,2013-01-10 05:58:00,
2013-01-10 00:59:00,29.5,26.4,30.53,East,92,3.0,3.0,88,0.00,,,0.00,Wunderground v.1.15,2013-01-10 05:59:00,
2013-01-10 01:02:00,29.3,26.2,30.53,East,92,4.0,4.0,88,0.00,,,0.00,Wunderground v.1.15,2013-01-10 06:02:00,
2013-01-10 01:04:00,29.2,26.1,30.53,ESE,107,4.0,4.0,88,0.00,,,0.00,Wunderground v.1.15,2013-01-10 06:04:00,
2013-01-10 01:06:00,29.0,25.9,30.54,SE,130,4.0,4.0,88,0.00,,,0.00,Wunderground v.1.15,2013-01-10 06:06:00,
2013-01-10 01:07:00,28.9,25.8,30.53,SE,132,4.0,4.0,88,0.00,,,0.00,Wunderground v.1.15,2013-01-10 06:07:00,
2013-01-10 01:08:00,28.8,25.7,30.54,SE,132,4.0,4.0,88,0.00,,,0.00,Wunderground v.1.15,2013-01-10 06:08:00,
2013-01-10 01:10:00,28.6,25.5,30.54,SE,133,4.0,4.0,88,0.00,,,0.00,Wunderground v.1.15,2013-01-10 06:10:00,
2013-01-10 01:13:00,28.4,25.3,30.54,SE,133,4.0,4.0,88,0.00,,,0.00,Wunderground v.1.15,2013-01-10 06:13:00,
2013-01-10 01:15:00,28.3,25.5,30.54,SE,133,4.0,4.0,89,0.00,,,0.00,Wunderground v.1.15,2013-01-10 06:15:00,
2013-01-10 01:16:00,28.3,25.5,30.54,SE,133,4.0,4.0,89,0.00,,,0.00,Wunderground v.1.15,2013-01-10 06:16:00,
2013-01-10 01:20:00,28.0,25.2,30.54,SE,133,5.0,5.0,89,0.00,,,0.00,Wunderground v.1.15,2013-01-10 06:20:00,
2013-01-10 01:21:00,28.0,25.2,30.54,SE,133,4.0,5.0,89,0.00,,,0.00,Wunderground v.1.15,2013-01-10 06:21:00,
2013-01-10 01:22:00,27.9,25.1,30.54,SE,133,4.0,5.0,89,0.00,,,0.00,Wunderground v.1.15,2013-01-10 06:22:00,
2013-01-10 01:24:00,27.8,25.0,30.54,SE,133,4.0,5.0,89,0.00,,,0.00,Wunderground v.1.15,2013-01-10 06:24:00,
2013-01-10 01:28:00,27.6,24.8,30.54,SE,133,4.0,5.0,89,0.00,,,0.00,Wunderground v.1.15,2013-01-10 06:28:00,
2013-01-10 01:29:00,27.6,24.8,30.54,SE,134,5.0,5.0,89,0.00,,,0.00,Wunderground v.1.15,2013-01-10 06:29:00,
2013-01-10 01:30:00,27.6,24.8,30.54,SE,134,5.0,5.0,89,0.00,,,0.00,Wunderground v.1.15,2013-01-10 06:30:00,
2013-01-10 01:33:00,27.4,24.6,30.54,SE,136,5.0,5.0,89,0.00,,,0.00,Wunderground v.1.15,2013-01-10 06:33:00,
2013-01-10 01:35:00,27.3,24.5,30.54,SE,136,4.0,5.0,89,0.00,,,0.00,Wunderground v.1.15,2013-01-10 06:35:00,
2013-01-10 01:40:00,27.1,24.3,30.54,SE,133,5.0,5.0,89,0.00,,,0.00,Wunderground v.1.15,2013-01-10 06:40:00,
2013-01-10 01:41:00,27.1,24.3,30.54,SE,133,5.0,5.0,89,0.00,,,0.00,Wunderground v.1.15,2013-01-10 06:41:00,
2013-01-10 01:42:00,27.1,24.6,30.54,SE,133,5.0,5.0,90,0.00,,,0.00,Wunderground v.1.15,2013-01-10 06:42:00,
2013-01-10 01:44:00,27.0,24.5,30.54,SE,133,5.0,5.0,90,0.00,,,0.00,Wunderground v.1.15,2013-01-10 06:44:00,
2013-01-10 01:48:00,26.8,24.3,30.54,SE,133,5.0,5.0,90,0.00,,,0.00,Wunderground v.1.15,2013-01-10 06:48:00,
2013-01-10 01:49:00,26.8,24.3,30.54,SE,134,5.0,5.0,90,0.00,,,0.00,Wunderground v.1.15,2013-01-10 06:49:00,
2013-01-10 01:51:00,26.7,24.2,30.54,SE,134,5.0,5.0,90,0.00,,,0.00,Wunderground v.1.15,2013-01-10 06:51:00,
2013-01-10 01:56:00,26.5,24.0,30.54,SE,135,6.0,6.0,90,0.00,,,0.00,Wunderground v.1.15,2013-01-10 06:56:00,
2013-01-10 01:57:00,26.5,24.0,30.54,SE,136,6.0,6.0,90,0.00,,,0.00,Wunderground v.1.15,2013-01-10 06:57:00,
2013-01-10 02:00:00,26.4,23.9,30.54,SE,136,5.0,6.0,90,0.00,,,0.00,Wunderground v.1.15,2013-01-10 07:00:00,
2013-01-10 02:01:00,26.4,23.9,30.54,SE,136,5.0,6.0,90,0.00,,,0.00,Wunderground v.1.15,2013-01-10 07:01:00,
2013-01-10 02:02:00,26.3,23.8,30.55,SE,137,5.0,6.0,90,0.00,,,0.00,Wunderground v.1.15,2013-01-10 07:02:00,
2013-01-10 02:05:00,26.2,23.7,30.55,SE,140,6.0,6.0,90,0.00,,,0.00,Wunderground v.1.15,2013-01-10 07:05:00,
2013-01-10 02:06:00,26.2,23.7,30.55,SE,140,6.0,6.0,90,0.00,,,0.00,Wunderground v.1.15,2013-01-10 07:06:00,
2013-01-10 02:08:00,26.2,23.7,30.55,SE,143,6.0,6.0,90,0.00,,,0.00,Wunderground v.1.15,2013-01-10 07:08:00,
2013-01-10 02:10:00,26.1,23.6,30.55,SE,145,5.0,5.0,90,0.00,,,0.00,Wunderground v.1.15,2013-01-10 07:10:00,
2013-01-10 02:11:00,26.1,23.6,30.55,SE,145,5.0,6.0,90,0.00,,,0.00,Wunderground v.1.15,2013-01-10 07:11:00,
2013-01-10 02:12:00,26.1,23.6,30.55,SE,144,5.0,6.0,90,0.00,,,0.00,Wunderground v.1.15,2013-01-10 07:12:00,
2013-01-10 02:13:00,26.0,23.5,30.55,SE,142,5.0,6.0,90,0.00,,,0.00,Wunderground v.1.15,2013-01-10 07:13:00,
2013-01-10 02:15:00,26.0,23.7,30.55,SE,138,4.0,6.0,91,0.00,,,0.00,Wunderground v.1.15,2013-01-10 07:15:00,
2013-01-10 02:16:00,25.9,23.6,30.55,SE,139,4.0,6.0,91,0.00,,,0.00,Wunderground v.1.15,2013-01-10 07:16:00,
2013-01-10 02:17:00,25.9,23.6,30.55,SE,140,4.0,6.0,91,0.00,,,0.00,Wunderground v.1.15,2013-01-10 07:17:00,
2013-01-10 02:18:00,25.9,23.6,30.55,SE,140,4.0,6.0,91,0.00,,,0.00,Wunderground v.1.15,2013-01-10 07:18:00,
2013-01-10 02:21:00,25.8,23.5,30.55,SE,140,5.0,5.0,91,0.00,,,0.00,Wunderground v.1.15,2013-01-10 07:21:00,
2013-01-10 02:22:00,25.8,23.5,30.55,SE,140,4.0,5.0,91,0.00,,,0.00,Wunderground v.1.15,2013-01-10 07:22:00,
2013-01-10 02:23:00,25.8,23.5,30.55,SE,138,5.0,5.0,91,0.00,,,0.00,Wunderground v.1.15,2013-01-10 07:23:00,
2013-01-10 02:26:00,25.8,23.5,30.55,SE,138,4.0,5.0,91,0.00,,,0.00,Wunderground v.1.15,2013-01-10 07:26:00,
2013-01-10 02:27:00,25.8,23.5,30.55,SE,139,5.0,5.0,91,0.00,,,0.00,Wunderground v.1.15,2013-01-10 07:27:00,
2013-01-10 02:29:00,25.8,23.5,30.55,SE,140,5.0,5.0,91,0.00,,,0.00,Wunderground v.1.15,2013-01-10 07:29:00,
2013-01-10 02:31:00,25.7,23.4,30.55,SE,138,4.0,5.0,91,0.00,,,0.00,Wunderground v.1.15,2013-01-10 07:31:00,
2013-01-10 02:32:00,25.7,23.7,30.55,SE,137,5.0,5.0,92,0.00,,,0.00,Wunderground v.1.15,2013-01-10 07:32:00,
2013-01-10 02:34:00,25.7,23.7,30.55,SE,137,4.0,5.0,92,0.00,,,0.00,Wunderground v.1.15,2013-01-10 07:34:00,
2013-01-10 02:36:00,25.7,23.7,30.55,SE,140,5.0,6.0,92,0.00,,,0.00,Wunderground v.1.15,2013-01-10 07:36:00,
2013-01-10 02:37:00,25.7,23.7,30.55,SE,140,5.0,6.0,92,0.00,,,0.00,Wunderground v.1.15,2013-01-10 07:37:00,
2013-01-10 02:38:00,25.7,23.7,30.55,SE,140,4.0,6.0,92,0.00,,,0.00,Wunderground v.1.15,2013-01-10 07:38:00,
2013-01-10 02:39:00,25.7,23.7,30.55,SE,137,4.0,6.0,92,0.00,,,0.00,Wunderground v.1.15,2013-01-10 07:39:00,
2013-01-10 02:41:00,25.7,23.7,30.55,SE,136,3.0,4.0,92,0.00,,,0.00,Wunderground v.1.15,2013-01-10 07:41:00,
2013-01-10 02:42:00,25.6,23.6,30.55,SE,136,4.0,4.0,92,0.00,,,0.00,Wunderground v.1.15,2013-01-10 07:42:00,
2013-01-10 02:43:00,25.7,23.7,30.55,SE,136,4.0,4.0,92,0.00,,,0.00,Wunderground v.1.15,2013-01-10 07:43:00,
2013-01-10 02:44:00,25.7,23.7,30.55,SE,137,5.0,5.0,92,0.00,,,0.00,Wunderground v.1.15,2013-01-10 07:44:00,
2013-01-10 02:47:00,25.6,23.6,30.55,SE,140,4.0,5.0,92,0.00,,,0.00,Wunderground v.1.15,2013-01-10 07:47:00,
2013-01-10 02:48:00,25.6,23.6,30.55,SE,138,2.0,5.0,92,0.00,,,0.00,Wunderground v.1.15,2013-01-10 07:48:00,
2013-01-10 02:49:00,25.6,23.6,30.56,SE,137,3.0,5.0,92,0.00,,,0.00,Wunderground v.1.15,2013-01-10 07:49:00,
2013-01-10 02:52:00,25.7,23.7,30.56,SE,137,4.0,5.0,92,0.00,,,0.00,Wunderground v.1.15,2013-01-10 07:52:00,
2013-01-10 02:53:00,25.7,23.7,30.56,SE,138,4.0,5.0,92,0.00,,,0.00,Wunderground v.1.15,2013-01-10 07:53:00,
2013-01-10 02:54:00,25.7,23.7,30.56,SE,138,5.0,5.0,92,0.00,,,0.00,Wunderground v.1.15,2013-01-10 07:54:00,
2013-01-10 02:57:00,25.8,23.8,30.56,SE,136,4.0,5.0,92,0.00,,,0.00,Wunderground v.1.15,2013-01-10 07:57:00,
2013-01-10 02:58:00,25.7,23.7,30.56,SE,136,3.0,5.0,92,0.00,,,0.00,Wunderground v.1.15,2013-01-10 07:58:00,
2013-01-10 02:59:00,25.8,23.8,30.56,SE,136,4.0,5.0,92,0.00,,,0.00,Wunderground v.1.15,2013-01-10 07:59:00,
2013-01-10 03:02:00,25.8,23.8,30.56,SE,133,3.0,5.0,92,0.00,,,0.00,Wunderground v.1.15,2013-01-10 08:02:00,
2013-01-10 03:03:00,25.8,23.8,30.56,SE,133,3.0,5.0,92,0.00,,,0.00,Wunderground v.1.15,2013-01-10 08:03:00,
2013-01-10 03:04:00,25.8,23.8,30.56,SE,135,5.0,5.0,92,0.00,,,0.00,Wunderground v.1.15,2013-01-10 08:04:00,
2013-01-10 03:07:00,25.8,24.1,30.56,SE,137,4.0,5.0,93,0.00,,,0.00,Wunderground v.1.15,2013-01-10 08:07:00,
2013-01-10 03:08:00,25.8,24.1,30.56,SE,137,5.0,5.0,93,0.00,,,0.00,Wunderground v.1.15,2013-01-10 08:08:00,
2013-01-10 03:09:00,25.8,24.1,30.56,SE,138,4.0,5.0,93,0.00,,,0.00,Wunderground v.1.15,2013-01-10 08:09:00,
2013-01-10 03:10:00,25.8,24.1,30.56,SE,137,5.0,5.0,93,0.00,,,0.00,Wunderground v.1.15,2013-01-10 08:10:00,
2013-01-10 03:12:00,25.7,24.0,30.56,SE,138,4.0,5.0,93,0.00,,,0.00,Wunderground v.1.15,2013-01-10 08:12:00,
2013-01-10 03:13:00,25.7,24.0,30.56,SE,138,4.0,5.0,93,0.00,,,0.00,Wunderground v.1.15,2013-01-10 08:13:00,
2013-01-10 03:14:00,25.7,24.0,30.56,SE,138,4.0,5.0,93,0.00,,,0.00,Wunderground v.1.15,2013-01-10 08:14:00,
2013-01-10 03:15:00,25.7,24.0,30.56,SE,137,4.0,5.0,93,0.00,,,0.00,Wunderground v.1.15,2013-01-10 08:15:00,
2013-01-10 03:17:00,25.7,24.0,30.56,SE,137,4.0,5.0,93,0.00,,,0.00,Wunderground v.1.15,2013-01-10 08:17:00,
2013-01-10 03:18:00,25.7,24.0,30.56,SE,138,4.0,5.0,93,0.00,,,0.00,Wunderground v.1.15,2013-01-10 08:18:00,
2013-01-10 03:19:00,25.7,24.0,30.56,SE,137,4.0,5.0,93,0.00,,,0.00,Wunderground v.1.15,2013-01-10 08:19:00,
2013-01-10 03:20:00,25.7,24.0,30.56,SE,137,5.0,5.0,93,0.00,,,0.00,Wunderground v.1.15,2013-01-10 08:20:00,
2013-01-10 03:22:00,25.6,23.9,30.56,SE,138,4.0,5.0,93,0.00,,,0.00,Wunderground v.1.15,2013-01-10 08:22:00,
2013-01-10 03:24:00,25.6,23.9,30.56,SE,138,5.0,5.0,93,0.00,,,0.00,Wunderground v.1.15,2013-01-10 08:24:00,
2013-01-10 03:26:00,25.6,23.9,30.56,SE,138,4.0,5.0,93,0.00,,,0.00,Wunderground v.1.15,2013-01-10 08:26:00,
2013-01-10 03:27:00,25.6,23.9,30.56,SE,139,4.0,5.0,93,0.00,,,0.00,Wunderground v.1.15,2013-01-10 08:27:00,
2013-01-10 03:29:00,25.5,23.8,30.56,SE,138,4.0,5.0,93,0.00,,,0.00,Wunderground v.1.15,2013-01-10 08:29:00,
2013-01-10 03:30:00,25.5,23.8,30.56,SE,138,4.0,5.0,93,0.00,,,0.00,Wunderground v.1.15,2013-01-10 08:30:00,
2013-01-10 03:31:00,25.5,23.8,30.56,SE,137,4.0,5.0,93,0.00,,,0.00,Wunderground v.1.15,2013-01-10 08:31:00,
2013-01-10 03:32:00,25.5,23.8,30.56,SE,133,4.0,5.0,93,0.00,,,0.00,Wunderground v.1.15,2013-01-10 08:32:00,
2013-01-10 03:35:00,25.4,23.7,30.56,SE,134,4.0,5.0,93,0.00,,,0.00,Wunderground v.1.15,2013-01-10 08:35:00,
2013-01-10 03:36:00,25.4,23.7,30.56,SE,136,5.0,5.0,93,0.00,,,0.00,Wunderground v.1.15,2013-01-10 08:36:00,
2013-01-10 03:38:00,25.4,23.7,30.56,SE,134,4.0,5.0,93,0.00,,,0.00,Wunderground v.1.15,2013-01-10 08:38:00,
2013-01-10 03:40:00,25.4,23.7,30.55,SE,134,4.0,4.0,93,0.00,,,0.00,Wunderground v.1.15,2013-01-10 08:40:00,
2013-01-10 03:41:00,25.4,23.7,30.55,SE,134,4.0,4.0,93,0.00,,,0.00,Wunderground v.1.15,2013-01-10 08:41:00,
2013-01-10 03:43:00,25.4,23.7,30.55,SE,134,4.0,5.0,93,0.00,,,0.00,Wunderground v.1.15,2013-01-10 08:43:00,
2013-01-10 03:45:00,25.4,23.7,30.55,SE,136,4.0,5.0,93,0.00,,,0.00,Wunderground v.1.15,2013-01-10 08:45:00,
2013-01-10 03:46:00,25.4,23.7,30.55,SE,134,4.0,6.0,93,0.00,,,0.00,Wunderground v.1.15,2013-01-10 08:46:00,
2013-01-10 03:48:00,25.3,23.6,30.55,SE,134,4.0,6.0,93,0.00,,,0.00,Wunderground v.1.15,2013-01-10 08:48:00,
2013-01-10 03:50:00,25.3,23.6,30.55,SE,134,4.0,4.0,93,0.00,,,0.00,Wunderground v.1.15,2013-01-10 08:50:00,
2013-01-10 03:52:00,25.3,23.6,30.55,SE,134,4.0,5.0,93,0.00,,,0.00,Wunderground v.1.15,2013-01-10 08:52:00,
2013-01-10 03:54:00,25.3,23.6,30.55,SE,137,4.0,5.0,93,0.00,,,0.00,Wunderground v.1.15,2013-01-10 08:54:00,
2013-01-10 03:55:00,25.3,23.6,30.55,SE,138,3.0,5.0,93,0.00,,,0.00,Wunderground v.1.15,2013-01-10 08:55:00,
2013-01-10 03:57:00,25.3,23.6,30.55,SE,137,4.0,5.0,93,0.00,,,0.00,Wunderground v.1.15,2013-01-10 08:57:00,
2013-01-10 03:59:00,25.3,23.6,30.55,SE,136,4.0,5.0,93,0.00,,,0.00,Wunderground v.1.15,2013-01-10 08:59:00,
2013-01-10 04:01:00,25.3,23.6,30.55,SE,137,4.0,4.0,93,0.00,,,0.00,Wunderground v.1.15,2013-01-10 09:01:00,
2013-01-10 04:02:00,25.2,23.5,30.55,SE,138,4.0,4.0,93,0.00,,,0.00,Wunderground v.1.15,2013-01-10 09:02:00,
2013-01-10 04:04:00,25.2,23.5,30.55,SE,138,4.0,5.0,93,0.00,,,0.00,Wunderground v.1.15,2013-01-10 09:04:00,
2013-01-10 04:06:00,25.2,23.5,30.55,SE,138,5.0,5.0,93,0.00,,,0.00,Wunderground v.1.15,2013-01-10 09:06:00,
2013-01-10 04:07:00,25.2,23.5,30.55,SE,140,5.0,5.0,93,0.00,,,0.00,Wunderground v.1.15,2013-01-10 09:07:00,
2013-01-10 04:09:00,25.2,25.2,30.55,SE,140,5.0,5.0,100,0.00,,,0.00,Wunderground v.1.15,2013-01-10 09:09:00,
2013-01-10 04:12:00,25.2,23.5,30.54,SE,138,5.0,5.0,93,0.00,,,0.00,Wunderground v.1.15,2013-01-10 09:12:00,
2013-01-10 04:14:00,25.2,23.5,30.54,SE,138,5.0,5.0,93,0.00,,,0.00,Wunderground v.1.15,2013-01-10 09:14:00,
2013-01-10 04:17:00,25.1,23.4,30.54,SE,134,5.0,5.0,93,0.00,,,0.00,Wunderground v.1.15,2013-01-10 09:17:00,
2013-01-10 04:18:00,25.0,23.3,30.54,SE,136,4.0,5.0,93,0.00,,,0.00,Wunderground v.1.15,2013-01-10 09:18:00,
2013-01-10 04:21:00,25.0,23.3,30.54,SE,137,4.0,5.0,93,0.00,,,0.00,Wunderground v.1.15,2013-01-10 09:21:00,
2013-01-10 04:22:00,24.9,23.2,30.54,SE,140,4.0,5.0,93,0.00,,,0.00,Wunderground v.1.15,2013-01-10 09:22:00,
2013-01-10 04:23:00,24.9,23.2,30.54,SE,140,4.0,5.0,93,0.00,,,0.00,Wunderground v.1.15,2013-01-10 09:23:00,
2013-01-10 04:26:00,24.9,23.2,30.54,SE,139,4.0,5.0,93,0.00,,,0.00,Wunderground v.1.15,2013-01-10 09:26:00,
2013-01-10 04:27:00,24.8,23.1,30.54,SE,137,4.0,5.0,93,0.00,,,0.00,Wunderground v.1.15,2013-01-10 09:27:00,
2013-01-10 04:28:00,24.8,23.1,30.54,SE,136,4.0,5.0,93,0.00,,,0.00,Wunderground v.1.15,2013-01-10 09:28:00,
2013-01-10 04:31:00,24.8,23.1,30.54,SE,140,4.0,5.0,93,0.00,,,0.00,Wunderground v.1.15,2013-01-10 09:31:00,
2013-01-10 04:33:00,24.7,23.0,30.54,SE,140,5.0,5.0,93,0.00,,,0.00,Wunderground v.1.15,2013-01-10 09:33:00,
2013-01-10 04:34:00,24.7,23.0,30.54,SE,140,4.0,5.0,93,0.00,,,0.00,Wunderground v.1.15,2013-01-10 09:34:00,
2013-01-10 04:37:00,24.7,23.0,30.54,SE,136,5.0,5.0,93,0.00,,,0.00,Wunderground v.1.15,2013-01-10 09:37:00,
2013-01-10 04:38:00,24.6,22.9,30.54,SE,137,4.0,5.0,93,0.00,,,0.00,Wunderground v.1.15,2013-01-10 09:38:00,
2013-01-10 04:39:00,24.6,22.9,30.54,SE,137,5.0,5.0,93,0.00,,,0.00,Wunderground v.1.15,2013-01-10 09:39:00,
2013-01-10 04:42:00,24.5,22.8,30.54,SE,136,4.0,5.0,93,0.00,,,0.00,Wunderground v.1.15,2013-01-10 09:42:00,
2013-01-10 04:43:00,24.5,22.8,30.53,SE,133,3.0,5.0,93,0.00,,,0.00,Wunderground v.1.15,2013-01-10 09:43:00,
2013-01-10 04:44:00,24.5,22.8,30.53,SE,133,3.0,5.0,93,0.00,,,0.00,Wunderground v.1.15,2013-01-10 09:44:00,
2013-01-10 04:47:00,24.4,22.7,30.53,SE,132,4.0,5.0,93,0.00,,,0.00,Wunderground v.1.15,2013-01-10 09:47:00,
2013-01-10 04:49:00,24.4,22.7,30.53,SE,133,4.0,5.0,93,0.00,,,0.00,Wunderground v.1.15,2013-01-10 09:49:00,
2013-01-10 04:50:00,24.4,22.7,30.53,SE,134,4.0,5.0,93,0.00,,,0.00,Wunderground v.1.15,2013-01-10 09:50:00,
2013-01-10 04:52:00,24.4,22.7,30.53,SE,136,4.0,5.0,93,0.00,,,0.00,Wunderground v.1.15,2013-01-10 09:52:00,
2013-01-10 04:54:00,24.4,22.7,30.53,SE,138,5.0,5.0,93,0.00,,,0.00,Wunderground v.1.15,2013-01-10 09:54:00,
2013-01-10 04:55:00,24.4,22.7,30.53,SE,137,4.0,5.0,93,0.00,,,0.00,Wunderground v.1.15,2013-01-10 09:55:00,
2013-01-10 04:57:00,24.3,22.6,30.53,SE,133,4.0,5.0,93,0.00,,,0.00,Wunderground v.1.15,2013-01-10 09:57:00,
2013-01-10 04:59:00,24.3,22.6,30.53,SE,133,5.0,5.0,93,0.00,,,0.00,Wunderground v.1.15,2013-01-10 09:59:00,
2013-01-10 05:01:00,24.3,22.6,30.53,SE,134,4.0,5.0,93,0.00,,,0.00,Wunderground v.1.15,2013-01-10 10:01:00,
2013-01-10 05:02:00,24.3,22.6,30.53,SE,134,4.0,5.0,93,0.00,,,0.00,Wunderground v.1.15,2013-01-10 10:02:00,
2013-01-10 05:04:00,24.2,22.5,30.53,SE,134,5.0,5.0,93,0.00,,,0.00,Wunderground v.1.15,2013-01-10 10:04:00,
2013-01-10 05:05:00,24.2,22.5,30.53,SE,134,4.0,5.0,93,0.00,,,0.00,Wunderground v.1.15,2013-01-10 10:05:00,
2013-01-10 05:06:00,24.1,22.4,30.53,SE,136,4.0,5.0,93,0.00,,,0.00,Wunderground v.1.15,2013-01-10 10:06:00,
2013-01-10 05:07:00,24.1,22.4,30.53,SE,140,4.0,5.0,93,0.00,,,0.00,Wunderground v.1.15,2013-01-10 10:07:00,
2013-01-10 05:09:00,24.0,22.3,30.53,SE,141,5.0,5.0,93,0.00,,,0.00,Wunderground v.1.15,2013-01-10 10:09:00,
2013-01-10 05:10:00,24.0,22.3,30.53,SE,142,4.0,5.0,93,0.00,,,0.00,Wunderground v.1.15,2013-01-10 10:10:00,
2013-01-10 05:11:00,24.0,22.3,30.53,SE,145,4.0,5.0,93,0.00,,,0.00,Wunderground v.1.15,2013-01-10 10:11:00,
2013-01-10 05:13:00,24.0,22.3,30.53,SE,144,5.0,6.0,93,0.00,,,0.00,Wunderground v.1.15,2013-01-10 10:13:00,
2013-01-10 05:15:00,23.9,22.2,30.53,SE,138,4.0,6.0,93,0.00,,,0.00,Wunderground v.1.15,2013-01-10 10:15:00,
2013-01-10 05:16:00,23.9,22.2,30.53,SE,137,4.0,6.0,93,0.00,,,0.00,Wunderground v.1.15,2013-01-10 10:16:00,
2013-01-10 05:18:00,23.9,22.2,30.53,SE,137,4.0,6.0,93,0.00,,,0.00,Wunderground v.1.15,2013-01-10 10:18:00,
2013-01-10 05:20:00,23.9,22.2,30.53,SE,134,4.0,4.0,93,0.00,,,0.00,Wunderground v.1.15,2013-01-10 10:20:00,
2013-01-10 05:21:00,23.9,22.2,30.53,SE,135,4.0,4.0,93,0.00,,,0.00,Wunderground v.1.15,2013-01-10 10:21:00,
2013-01-10 05:22:00,23.9,22.4,30.53,SE,134,2.0,4.0,94,0.00,,,0.00,Wunderground v.1.15,2013-01-10 10:22:00,
2013-01-10 05:23:00,23.9,22.4,30.53,SE,134,3.0,4.0,94,0.00,,,0.00,Wunderground v.1.15,2013-01-10 10:23:00,
2013-01-10 05:25:00,24.0,22.5,30.53,SE,134,3.0,4.0,94,0.00,,,0.00,Wunderground v.1.15,2013-01-10 10:25:00,
2013-01-10 05:26:00,24.1,22.6,30.53,SE,134,2.0,4.0,94,0.00,,,0.00,Wunderground v.1.15,2013-01-10 10:26:00,
2013-01-10 05:27:00,24.1,22.6,30.53,SE,134,3.0,4.0,94,0.00,,,0.00,Wunderground v.1.15,2013-01-10 10:27:00,
2013-01-10 05:28:00,24.2,22.7,30.54,SE,134,3.0,4.0,94,0.00,,,0.00,Wunderground v.1.15,2013-01-10 10:28:00,
2013-01-10 05:30:00,24.3,22.8,30.54,SE,133,3.0,3.0,94,0.00,,,0.00,Wunderground v.1.15,2013-01-10 10:30:00,
2013-01-10 05:31:00,24.3,22.8,30.54,SE,132,3.0,3.0,94,0.00,,,0.00,Wunderground v.1.15,2013-01-10 10:31:00,
2013-01-10 05:32:00,24.3,22.8,30.54,SE,132,2.0,3.0,94,0.00,,,0.00,Wunderground v.1.15,2013-01-10 10:32:00,
2013-01-10 05:33:00,24.3,22.8,30.54,SE,132,3.0,3.0,94,0.00,,,0.00,Wunderground v.1.15,2013-01-10 10:33:00,
2013-01-10 05:35:00,24.4,22.9,30.54,SE,132,3.0,4.0,94,0.00,,,0.00,Wunderground v.1.15,2013-01-10 10:35:00,
2013-01-10 05:36:00,24.4,22.9,30.54,SE,134,4.0,4.0,94,0.00,,,0.00,Wunderground v.1.15,2013-01-10 10:36:00,
2013-01-10 05:38:00,24.4,22.9,30.54,SE,134,4.0,4.0,94,0.00,,,0.00,Wunderground v.1.15,2013-01-10 10:38:00,
2013-01-10 05:41:00,24.3,22.8,30.54,SE,134,4.0,4.0,94,0.00,,,0.00,Wunderground v.1.15,2013-01-10 10:41:00,
2013-01-10 05:42:00,24.3,22.8,30.54,SE,133,4.0,4.0,94,0.00,,,0.00,Wunderground v.1.15,2013-01-10 10:42:00,
2013-01-10 05:43:00,24.3,22.8,30.54,SE,133,4.0,4.0,94,0.00,,,0.00,Wunderground v.1.15,2013-01-10 10:43:00,
2013-01-10 05:44:00,24.3,22.8,30.54,SE,134,4.0,4.0,94,0.00,,,0.00,Wunderground v.1.15,2013-01-10 10:44:00,
2013-01-10 05:46:00,24.3,22.8,30.54,SE,134,4.0,4.0,94,0.00,,,0.00,Wunderground v.1.15,2013-01-10 10:46:00,
2013-01-10 05:47:00,24.2,22.7,30.54,SE,134,4.0,4.0,94,0.00,,,0.00,Wunderground v.1.15,2013-01-10 10:47:00,
2013-01-10 05:49:00,24.2,22.7,30.54,SE,135,3.0,4.0,94,0.00,,,0.00,Wunderground v.1.15,2013-01-10 10:49:00,
2013-01-10 05:51:00,24.2,22.7,30.54,SE,133,3.0,4.0,94,0.00,,,0.00,Wunderground v.1.15,2013-01-10 10:51:00,
2013-01-10 05:52:00,24.2,22.7,30.54,SE,133,3.0,4.0,94,0.00,,,0.00,Wunderground v.1.15,2013-01-10 10:52:00,
2013-01-10 05:54:00,24.1,22.6,30.55,SE,134,4.0,4.0,94,0.00,,,0.00,Wunderground v.1.15,2013-01-10 10:54:00,
2013-01-10 05:57:00,24.0,22.5,30.55,SE,137,4.0,4.0,94,0.00,,,0.00,Wunderground v.1.15,2013-01-10 10:57:00,
2013-01-10 05:58:00,24.1,22.6,30.55,SE,137,3.0,4.0,94,0.00,,,0.00,Wunderground v.1.15,2013-01-10 10:58:00,
2013-01-10 05:59:00,24.0,22.5,30.54,SE,136,3.0,4.0,94,0.00,,,0.00,Wunderground v.1.15,2013-01-10 10:59:00,
2013-01-10 06:00:00,24.0,22.5,30.54,SE,136,3.0,4.0,94,0.00,,,0.00,Wunderground v.1.15,2013-01-10 11:00:00,
2013-01-10 06:02:00,24.0,22.5,30.54,SE,136,4.0,4.0,94,0.00,,,0.00,Wunderground v.1.15,2013-01-10 11:02:00,
2013-01-10 06:03:00,23.9,22.4,30.54,SE,132,3.0,4.0,94,0.00,,,0.00,Wunderground v.1.15,2013-01-10 11:03:00,
2013-01-10 06:04:00,23.9,22.4,30.54,SE,132,3.0,4.0,94,0.00,,,0.00,Wunderground v.1.15,2013-01-10 11:04:00,
2013-01-10 06:05:00,24.0,22.5,30.54,SE,132,3.0,4.0,94,0.00,,,0.00,Wunderground v.1.15,2013-01-10 11:05:00,
2013-01-10 06:07:00,23.9,22.4,30.54,SE,132,4.0,4.0,94,0.00,,,0.00,Wunderground v.1.15,2013-01-10 11:07:00,
2013-01-10 06:09:00,23.9,22.4,30.54,SE,135,3.0,4.0,94,0.00,,,0.00,Wunderground v.1.15,2013-01-10 11:09:00,
2013-01-10 06:10:00,23.9,22.4,30.54,SE,136,3.0,4.0,94,0.00,,,0.00,Wunderground v.1.15,2013-01-10 11:10:00,
2013-01-10 06:12:00,23.8,22.3,30.54,SE,133,3.0,4.0,94,0.00,,,0.00,Wunderground v.1.15,2013-01-10 11:12:00,
2013-01-10 06:14:00,23.8,22.3,30.54,SE,133,3.0,4.0,94,0.00,,,0.00,Wunderground v.1.15,2013-01-10 11:14:00,
2013-01-10 06:15:00,23.8,22.3,30.54,SE,134,3.0,4.0,94,0.00,,,0.00,Wunderground v.1.15,2013-01-10 11:15:00,
2013-01-10 06:17:00,23.7,22.2,30.54,SE,133,4.0,4.0,94,0.00,,,0.00,Wunderground v.1.15,2013-01-10 11:17:00,
2013-01-10 06:19:00,23.6,22.1,30.55,SE,132,4.0,4.0,94,0.00,,,0.00,Wunderground v.1.15,2013-01-10 11:19:00,
2013-01-10 06:20:00,23.6,22.1,30.54,SE,132,4.0,4.0,94,0.00,,,0.00,Wunderground v.1.15,2013-01-10 11:20:00,
2013-01-10 06:22:00,23.5,22.0,30.54,SE,132,3.0,4.0,94,0.00,,,0.00,Wunderground v.1.15,2013-01-10 11:22:00,
2013-01-10 06:24:00,23.5,22.0,30.54,SE,132,3.0,4.0,94,0.00,,,0.00,Wunderground v.1.15,2013-01-10 11:24:00,
2013-01-10 06:25:00,23.4,21.9,30.54,SE,132,4.0,4.0,94,0.00,,,0.00,Wunderground v.1.15,2013-01-10 11:25:00,
2013-01-10 06:27:00,23.4,21.9,30.54,SE,132,4.0,4.0,94,0.00,,,0.00,Wunderground v.1.15,2013-01-10 11:27:00,
2013-01-10 06:28:00,23.4,21.9,30.54,SE,132,4.0,4.0,94,0.00,,,0.00,Wunderground v.1.15,2013-01-10 11:28:00,
2013-01-10 06:29:00,23.4,21.9,30.54,SE,132,4.0,4.0,94,0.00,,,0.00,Wunderground v.1.15,2013-01-10 11:29:00,
2013-01-10 06:31:00,23.4,21.9,30.54,SE,134,3.0,4.0,94,0.00,,,0.00,Wunderground v.1.15,2013-01-10 11:31:00,
2013-01-10 06:32:00,23.4,21.9,30.54,SE,134,4.0,4.0,94,0.00,,,0.00,Wunderground v.1.15,2013-01-10 11:32:00,
2013-01-10 06:33:00,23.4,21.9,30.55,SE,134,3.0,4.0,94,0.00,,,0.00,Wunderground v.1.15,2013-01-10 11:33:00,
2013-01-10 06:35:00,23.3,21.8,30.54,SE,134,4.0,4.0,94,0.00,,,0.00,Wunderground v.1.15,2013-01-10 11:35:00,
2013-01-10 06:36:00,23.3,21.8,30.54,SE,134,3.0,4.0,94,0.00,,,0.00,Wunderground v.1.15,2013-01-10 11:36:00,
2013-01-10 06:37:00,23.3,21.8,30.55,SE,136,3.0,4.0,94,0.00,,,0.00,Wunderground v.1.15,2013-01-10 11:37:00,
2013-01-10 06:38:00,23.3,21.8,30.55,SE,137,2.0,4.0,94,0.00,,,0.00,Wunderground v.1.15,2013-01-10 11:38:00,
2013-01-10 06:40:00,23.3,21.8,30.55,SE,138,3.0,3.0,94,0.00,,,0.00,Wunderground v.1.15,2013-01-10 11:40:00,
2013-01-10 06:42:00,23.3,21.8,30.54,SE,137,2.0,4.0,94,0.00,,,0.00,Wunderground v.1.15,2013-01-10 11:42:00,
2013-01-10 06:43:00,23.3,21.8,30.54,SE,136,3.0,4.0,94,0.00,,,0.00,Wunderground v.1.15,2013-01-10 11:43:00,
2013-01-10 06:45:00,23.3,21.8,30.54,SE,134,3.0,4.0,94,0.00,,,0.00,Wunderground v.1.15,2013-01-10 11:45:00,
2013-01-10 06:47:00,23.3,21.8,30.54,SE,133,3.0,4.0,94,0.00,,,0.00,Wunderground v.1.15,2013-01-10 11:47:00,
2013-01-10 06:48:00,23.3,21.8,30.54,SE,133,4.0,4.0,94,0.00,,,0.00,Wunderground v.1.15,2013-01-10 11:48:00,
2013-01-10 06:51:00,23.3,21.8,30.53,SE,133,3.0,4.0,94,0.00,,,0.00,Wunderground v.1.15,2013-01-10 11:51:00,
2013-01-10 06:52:00,23.3,21.8,30.53,SE,133,1.0,4.0,94,0.00,,,0.00,Wunderground v.1.15,2013-01-10 11:52:00,
2013-01-10 06:53:00,23.3,21.8,30.53,SE,133,3.0,4.0,94,0.00,,,0.00,Wunderground v.1.15,2013-01-10 11:53:00,
2013-01-10 06:56:00,23.3,21.8,30.54,SE,133,3.0,4.0,94,0.00,,,0.00,Wunderground v.1.15,2013-01-10 11:56:00,
2013-01-10 06:57:00,23.3,21.8,30.54,SE,133,2.0,4.0,94,0.00,,,0.00,Wunderground v.1.15,2013-01-10 11:57:00,
2013-01-10 06:58:00,23.3,21.8,30.54,SE,133,1.0,4.0,94,0.00,,,0.00,Wunderground v.1.15,2013-01-10 11:58:00,
2013-01-10 07:01:00,23.3,21.8,30.54,SE,133,2.0,3.0,94,0.00,,,0.00,Wunderground v.1.15,2013-01-10 12:01:00,
2013-01-10 07:03:00,23.3,21.8,30.53,SE,133,1.0,3.0,94,0.00,,,0.00,Wunderground v.1.15,2013-01-10 12:03:00,
2013-01-10 07:06:00,23.5,22.0,30.53,SE,132,2.0,3.0,94,0.00,,,0.00,Wunderground v.1.15,2013-01-10 12:06:00,
2013-01-10 07:08:00,23.5,22.0,30.53,SE,132,1.0,3.0,94,0.00,,,0.00,Wunderground v.1.15,2013-01-10 12:08:00,
2013-01-10 07:09:00,23.5,22.0,30.53,SE,132,2.0,3.0,94,0.00,,,0.00,Wunderground v.1.15,2013-01-10 12:09:00,
2013-01-10 07:12:00,23.6,22.1,30.53,SE,132,2.0,2.0,94,0.00,,,0.00,Wunderground v.1.15,2013-01-10 12:12:00,
2013-01-10 07:13:00,23.7,22.5,30.53,SE,132,2.0,3.0,95,0.00,,,0.00,Wunderground v.1.15,2013-01-10 12:13:00,
2013-01-10 07:14:00,23.7,22.2,30.53,SE,132,2.0,4.0,94,0.00,,,0.00,Wunderground v.1.15,2013-01-10 12:14:00,
2013-01-10 07:17:00,23.8,22.3,30.53,SE,133,2.0,4.0,94,0.00,,,0.00,Wunderground v.1.15,2013-01-10 12:17:00,
2013-01-10 07:18:00,23.8,22.3,30.53,SE,133,3.0,4.0,94,0.00,,,0.00,Wunderground v.1.15,2013-01-10 12:18:00,
2013-01-10 07:19:00,23.9,22.4,30.53,SE,133,3.0,4.0,94,0.00,,,0.00,Wunderground v.1.15,2013-01-10 12:19:00,
2013-01-10 07:22:00,23.9,22.4,30.52,SE,133,1.0,3.0,94,0.00,,,0.00,Wunderground v.1.15,2013-01-10 12:22:00,
2013-01-10 07:23:00,23.9,22.4,30.53,SE,133,3.0,3.0,94,0.00,,,0.00,Wunderground v.1.15,2013-01-10 12:23:00,
2013-01-10 07:24:00,24.0,22.5,30.53,SE,133,3.0,3.0,94,0.00,,,0.00,Wunderground v.1.15,2013-01-10 12:24:00,
2013-01-10 07:27:00,24.0,22.5,30.53,SE,133,0.0,3.0,94,0.00,,,0.00,Wunderground v.1.15,2013-01-10 12:27:00,
2013-01-10 07:29:00,24.1,22.9,30.53,SE,133,1.0,3.0,95,0.00,,,0.00,Wunderground v.1.15,2013-01-10 12:29:00,
2013-01-10 07:32:00,24.1,22.9,30.52,SE,135,1.0,3.0,95,0.00,,,0.00,Wunderground v.1.15,2013-01-10 12:32:00,
2013-01-10 07:34:00,24.2,23.0,30.53,SE,134,2.0,3.0,95,0.00,,,0.00,Wunderground v.1.15,2013-01-10 12:34:00,
2013-01-10 07:35:00,24.2,23.0,30.53,SE,134,2.0,3.0,95,0.00,,,0.00,Wunderground v.1.15,2013-01-10 12:35:00,
2013-01-10 07:37:00,24.2,23.0,30.53,SE,134,1.0,3.0,95,0.00,,,0.00,Wunderground v.1.15,2013-01-10 12:37:00,
2013-01-10 07:39:00,24.2,23.0,30.53,SE,134,2.0,3.0,95,0.00,,,0.00,Wunderground v.1.15,2013-01-10 12:39:00,
2013-01-10 07:40:00,24.3,23.1,30.53,SE,135,3.0,3.0,95,0.00,,,0.00,Wunderground v.1.15,2013-01-10 12:40:00,
2013-01-10 07:43:00,24.3,23.1,30.53,SE,134,2.0,3.0,95,0.00,,,0.00,Wunderground v.1.15,2013-01-10 12:43:00,
2013-01-10 07:44:00,24.3,23.1,30.53,SE,134,2.0,3.0,95,0.00,,,0.00,Wunderground v.1.15,2013-01-10 12:44:00,
2013-01-10 07:45:00,24.3,23.1,30.53,SE,134,1.0,3.0,95,0.00,,,0.00,Wunderground v.1.15,2013-01-10 12:45:00,
2013-01-10 07:48:00,24.3,23.1,30.53,SE,134,2.0,3.0,95,0.00,,,0.00,Wunderground v.1.15,2013-01-10 12:48:00,
2013-01-10 07:49:00,24.4,23.2,30.53,SE,135,2.0,3.0,95,0.00,,,0.00,Wunderground v.1.15,2013-01-10 12:49:00,
2013-01-10 07:50:00,24.4,23.2,30.53,SE,134,2.0,3.0,95,0.00,,,0.00,Wunderground v.1.15,2013-01-10 12:50:00,
2013-01-10 07:53:00,24.4,23.2,30.53,SE,135,2.0,3.0,95,0.00,,,0.00,Wunderground v.1.15,2013-01-10 12:53:00,
2013-01-10 07:54:00,24.4,23.2,30.53,SE,134,2.0,3.0,95,0.00,,,0.00,Wunderground v.1.15,2013-01-10 12:54:00,
2013-01-10 07:55:00,24.4,23.2,30.53,SE,135,2.0,3.0,95,0.00,,,0.00,Wunderground v.1.15,2013-01-10 12:55:00,
2013-01-10 07:56:00,24.4,23.2,30.53,SE,135,2.0,3.0,95,0.00,,,0.00,Wunderground v.1.15,2013-01-10 12:56:00,
2013-01-10 07:58:00,24.4,23.2,30.54,SE,134,2.0,3.0,95,0.00,,,0.00,Wunderground v.1.15,2013-01-10 12:58:00,
2013-01-10 07:59:00,24.4,23.2,30.53,SE,134,2.0,2.0,95,0.00,,,0.00,Wunderground v.1.15,2013-01-10 12:59:00,
2013-01-10 08:00:00,24.4,23.2,30.53,SE,134,1.0,2.0,95,0.00,,,0.00,Wunderground v.1.15,2013-01-10 13:00:00,
2013-01-10 08:01:00,24.4,23.2,30.53,SE,134,1.0,3.0,95,0.00,,,0.00,Wunderground v.1.15,2013-01-10 13:01:00,
2013-01-10 08:03:00,24.4,23.2,30.54,SE,135,2.0,3.0,95,0.00,,,0.00,Wunderground v.1.15,2013-01-10 13:03:00,
2013-01-10 08:04:00,24.4,23.2,30.54,SE,135,2.0,3.0,95,0.00,,,0.00,Wunderground v.1.15,2013-01-10 13:04:00,
2013-01-10 08:05:00,24.4,23.2,30.54,SE,135,2.0,3.0,95,0.00,,,0.00,Wunderground v.1.15,2013-01-10 13:05:00,
2013-01-10 08:06:00,24.4,23.2,30.54,SE,135,1.0,3.0,95,0.00,,,0.00,Wunderground v.1.15,2013-01-10 13:06:00,
2013-01-10 08:08:00,24.4,23.2,30.54,SE,135,2.0,3.0,95,0.00,,,0.00,Wunderground v.1.15,2013-01-10 13:08:00,
2013-01-10 08:10:00,24.4,23.2,30.55,SE,135,1.0,3.0,95,0.00,,,0.00,Wunderground v.1.15,2013-01-10 13:10:00,
2013-01-10 08:11:00,24.4,23.2,30.54,SE,134,2.0,3.0,95,0.00,,,0.00,Wunderground v.1.15,2013-01-10 13:11:00,
2013-01-10 08:14:00,24.4,23.2,30.54,SE,134,2.0,3.0,95,0.00,,,0.00,Wunderground v.1.15,2013-01-10 13:14:00,
2013-01-10 08:15:00,24.4,23.2,30.54,SE,134,0.0,3.0,95,0.00,,,0.00,Wunderground v.1.15,2013-01-10 13:15:00,
2013-01-10 08:16:00,24.4,23.2,30.54,SE,135,0.0,3.0,95,0.00,,,0.00,Wunderground v.1.15,2013-01-10 13:16:00,
2013-01-10 08:19:00,24.4,23.2,30.54,SE,134,1.0,3.0,95,0.00,,,0.00,Wunderground v.1.15,2013-01-10 13:19:00,
2013-01-10 08:20:00,24.5,23.3,30.54,SE,135,2.0,3.0,95,0.00,,,0.00,Wunderground v.1.15,2013-01-10 13:20:00,
2013-01-10 08:21:00,24.5,23.3,30.54,SE,135,2.0,3.0,95,0.00,,,0.00,Wunderground v.1.15,2013-01-10 13:21:00,
2013-01-10 08:22:00,24.5,23.3,30.54,SE,135,2.0,3.0,95,0.00,,,0.00,Wunderground v.1.15,2013-01-10 13:22:00,
2013-01-10 08:24:00,24.5,23.3,30.54,SE,135,1.0,3.0,95,0.00,,,0.00,Wunderground v.1.15,2013-01-10 13:24:00,
2013-01-10 08:25:00,24.5,23.3,30.54,SE,135,3.0,3.0,95,0.00,,,0.00,Wunderground v.1.15,2013-01-10 13:25:00,
2013-01-10 08:26:00,24.6,23.4,30.54,SE,134,2.0,3.0,95,0.00,,,0.00,Wunderground v.1.15,2013-01-10 13:26:00,
2013-01-10 08:27:00,24.6,23.4,30.54,SE,134,2.0,3.0,95,0.00,,,0.00,Wunderground v.1.15,2013-01-10 13:27:00,
2013-01-10 08:29:00,24.7,23.5,30.54,SE,135,2.0,3.0,95,0.00,,,0.00,Wunderground v.1.15,2013-01-10 13:29:00,
2013-01-10 08:30:00,24.7,23.5,30.54,SE,135,1.0,2.0,95,0.00,,,0.00,Wunderground v.1.15,2013-01-10 13:30:00,
2013-01-10 08:31:00,24.7,23.5,30.54,SE,134,2.0,2.0,95,0.00,,,0.00,Wunderground v.1.15,2013-01-10 13:31:00,
2013-01-10 08:32:00,24.8,23.6,30.54,SE,134,0.0,2.0,95,0.00,,,0.00,Wunderground v.1.15,2013-01-10 13:32:00,
2013-01-10 08:34:00,24.8,23.6,30.54,SE,134,3.0,3.0,95,0.00,,,0.00,Wunderground v.1.15,2013-01-10 13:34:00,
2013-01-10 08:35:00,24.8,23.6,30.54,SE,134,2.0,3.0,95,0.00,,,0.00,Wunderground v.1.15,2013-01-10 13:35:00,
2013-01-10 08:36:00,24.9,23.7,30.54,SE,134,2.0,3.0,95,0.00,,,0.00,Wunderground v.1.15,2013-01-10 13:36:00,
2013-01-10 08:38:00,25.0,23.8,30.54,SE,135,2.0,3.0,95,0.00,,,0.00,Wunderground v.1.15,2013-01-10 13:38:00,
2013-01-10 08:40:00,25.1,23.9,30.54,SE,134,1.0,3.0,95,0.00,,,0.00,Wunderground v.1.15,2013-01-10 13:40:00,
2013-01-10 08:42:00,25.1,23.9,30.54,SE,135,1.0,3.0,95,0.00,,,0.00,Wunderground v.1.15,2013-01-10 13:42:00,
2013-01-10 08:43:00,25.2,24.0,30.54,SE,135,1.0,3.0,95,0.00,,,0.00,Wunderground v.1.15,2013-01-10 13:43:00,
2013-01-10 08:45:00,25.2,24.0,30.54,SE,135,1.0,3.0,95,0.00,,,0.00,Wunderground v.1.15,2013-01-10 13:45:00,
2013-01-10 08:47:00,25.3,24.1,30.55,SE,135,1.0,3.0,95,0.00,,,0.00,Wunderground v.1.15,2013-01-10 13:47:00,
2013-01-10 08:48:00,25.3,24.1,30.55,SE,135,0.0,3.0,95,0.00,,,0.00,Wunderground v.1.15,2013-01-10 13:48:00,
2013-01-10 08:50:00,25.4,24.2,30.54,SE,135,0.0,2.0,95,0.00,,,0.00,Wunderground v.1.15,2013-01-10 13:50:00,
2013-01-10 08:51:00,25.4,24.2,30.54,SE,134,1.0,2.0,95,0.00,,,0.00,Wunderground v.1.15,2013-01-10 13:51:00,
2013-01-10 08:52:00,25.4,24.2,30.54,SE,134,1.0,2.0,95,0.00,,,0.00,Wunderground v.1.15,2013-01-10 13:52:00,
2013-01-10 08:53:00,25.5,24.3,30.54,SE,136,0.0,3.0,95,0.00,,,0.00,Wunderground v.1.15,2013-01-10 13:53:00,
2013-01-10 08:55:00,25.6,24.4,30.54,SE,136,2.0,3.0,95,0.00,,,0.00,Wunderground v.1.15,2013-01-10 13:55:00,
2013-01-10 08:56:00,25.6,24.4,30.54,SE,136,1.0,3.0,95,0.00,,,0.00,Wunderground v.1.15,2013-01-10 13:56:00,
2013-01-10 08:57:00,25.7,24.5,30.54,SE,137,0.0,3.0,95,0.00,,,0.00,Wunderground v.1.15,2013-01-10 13:57:00,
2013-01-10 08:59:00,25.8,24.6,30.54,SE,137,3.0,4.0,95,0.00,,,0.00,Wunderground v.1.15,2013-01-10 13:59:00,
2013-01-10 09:01:00,25.9,24.7,30.54,SE,137,1.0,4.0,95,0.00,,,0.00,Wunderground v.1.15,2013-01-10 14:01:00,
2013-01-10 09:02:00,26.0,24.8,30.54,SE,134,1.0,4.0,95,0.00,,,0.00,Wunderground v.1.15,2013-01-10 14:02:00,
2013-01-10 09:04:00,26.1,24.9,30.54,SE,133,1.0,4.0,95,0.00,,,0.00,Wunderground v.1.15,2013-01-10 14:04:00,
2013-01-10 09:06:00,26.1,24.9,30.54,SE,135,3.0,4.0,95,0.00,,,0.00,Wunderground v.1.15,2013-01-10 14:06:00,
2013-01-10 09:08:00,26.2,25.0,30.55,SE,135,1.0,4.0,95,0.00,,,0.00,Wunderground v.1.15,2013-01-10 14:08:00,
2013-01-10 09:10:00,26.3,25.1,30.55,SE,137,3.0,3.0,95,0.00,,,0.00,Wunderground v.1.15,2013-01-10 14:10:00,
2013-01-10 09:11:00,26.3,25.1,30.55,SE,136,1.0,3.0,95,0.00,,,0.00,Wunderground v.1.15,2013-01-10 14:11:00,
2013-01-10 09:13:00,26.5,25.3,30.55,SE,136,3.0,4.0,95,0.00,,,0.00,Wunderground v.1.15,2013-01-10 14:13:00,
2013-01-10 09:15:00,26.6,25.4,30.55,SE,136,2.0,4.0,95,0.00,,,0.00,Wunderground v.1.15,2013-01-10 14:15:00,
2013-01-10 09:16:00,26.6,25.4,30.54,SE,136,1.0,4.0,95,0.00,,,0.00,Wunderground v.1.15,2013-01-10 14:16:00,
2013-01-10 09:18:00,26.7,25.5,30.54,SE,137,0.0,4.0,95,0.00,,,0.00,Wunderground v.1.15,2013-01-10 14:18:00,
2013-01-10 09:20:00,26.8,25.6,30.54,SE,136,3.0,3.0,95,0.00,,,0.00,Wunderground v.1.15,2013-01-10 14:20:00,
2013-01-10 09:21:00,26.9,25.7,30.54,SE,136,1.0,3.0,95,0.00,,,0.00,Wunderground v.1.15,2013-01-10 14:21:00,
2013-01-10 09:22:00,26.9,25.7,30.54,SE,136,3.0,3.0,95,0.00,,,0.00,Wunderground v.1.15,2013-01-10 14:22:00,
2013-01-10 09:23:00,27.0,25.8,30.54,SE,137,3.0,3.0,95,0.00,,,0.00,Wunderground v.1.15,2013-01-10 14:23:00,
2013-01-10 09:25:00,27.0,25.8,30.54,SE,138,2.0,3.0,95,0.00,,,0.00,Wunderground v.1.15,2013-01-10 14:25:00,
2013-01-10 09:26:00,27.1,25.9,30.54,SE,137,1.0,3.0,95,0.00,,,0.00,Wunderground v.1.15,2013-01-10 14:26:00,
2013-01-10 09:27:00,27.2,26.0,30.54,SE,136,2.0,3.0,95,0.00,,,0.00,Wunderground v.1.15,2013-01-10 14:27:00,
2013-01-10 09:29:00,27.3,26.1,30.54,SE,136,2.0,4.0,95,0.00,,,0.00,Wunderground v.1.15,2013-01-10 14:29:00,
2013-01-10 09:30:00,27.4,26.2,30.54,SE,140,1.0,3.0,95,0.00,,,0.00,Wunderground v.1.15,2013-01-10 14:30:00,
2013-01-10 09:31:00,27.5,26.5,30.54,SE,140,1.0,3.0,96,0.00,,,0.00,Wunderground v.1.15,2013-01-10 14:31:00,
2013-01-10 09:33:00,27.6,26.6,30.54,SE,139,1.0,3.0,96,0.00,,,0.00,Wunderground v.1.15,2013-01-10 14:33:00,
2013-01-10 09:34:00,27.6,26.6,30.54,SE,138,1.0,3.0,96,0.00,,,0.00,Wunderground v.1.15,2013-01-10 14:34:00,
2013-01-10 09:35:00,27.7,26.5,30.53,SE,138,2.0,3.0,95,0.00,,,0.00,Wunderground v.1.15,2013-01-10 14:35:00,
2013-01-10 09:36:00,27.7,26.5,30.53,SE,138,2.0,3.0,95,0.00,,,0.00,Wunderground v.1.15,2013-01-10 14:36:00,
2013-01-10 09:38:00,27.8,26.6,30.53,SE,138,2.0,4.0,95,0.00,,,0.00,Wunderground v.1.15,2013-01-10 14:38:00,
2013-01-10 09:40:00,27.9,26.9,30.53,SE,140,2.0,3.0,96,0.00,,,0.00,Wunderground v.1.15,2013-01-10 14:40:00,
2013-01-10 09:42:00,28.1,27.1,30.53,SE,140,3.0,3.0,96,0.00,,,0.00,Wunderground v.1.15,2013-01-10 14:42:00,
2013-01-10 09:43:00,28.1,27.1,30.53,SE,139,0.0,3.0,96,0.00,,,0.00,Wunderground v.1.15,2013-01-10 14:43:00,
2013-01-10 09:45:00,28.3,27.3,30.53,SE,140,0.0,3.0,96,0.00,,,0.00,Wunderground v.1.15,2013-01-10 14:45:00,
2013-01-10 09:47:00,28.5,27.5,30.53,SE,138,3.0,3.0,96,0.00,,,0.00,Wunderground v.1.15,2013-01-10 14:47:00,
2013-01-10 09:48:00,28.5,27.5,30.53,SE,140,3.0,3.0,96,0.00,,,0.00,Wunderground v.1.15,2013-01-10 14:48:00,
2013-01-10 09:51:00,28.8,27.8,30.53,SE,140,2.0,3.0,96,0.00,,,0.00,Wunderground v.1.15,2013-01-10 14:51:00,
2013-01-10 09:52:00,28.9,27.9,30.53,SE,141,2.0,3.0,96,0.00,,,0.00,Wunderground v.1.15,2013-01-10 14:52:00,
2013-01-10 09:53:00,29.0,28.0,30.53,SE,140,1.0,3.0,96,0.00,,,0.00,Wunderground v.1.15,2013-01-10 14:53:00,
2013-01-10 09:56:00,29.3,28.3,30.53,SE,137,4.0,4.0,96,0.00,,,0.00,Wunderground v.1.15,2013-01-10 14:56:00,
2013-01-10 09:57:00,29.4,28.4,30.53,SE,143,2.0,4.0,96,0.00,,,0.00,Wunderground v.1.15,2013-01-10 14:57:00,
2013-01-10 09:59:00,29.5,28.5,30.53,SE,139,2.0,4.0,96,0.00,,,0.00,Wunderground v.1.15,2013-01-10 14:59:00,
2013-01-10 10:01:00,29.8,28.8,30.52,SE,136,3.0,4.0,96,0.00,,,0.00,Wunderground v.1.15,2013-01-10 15:01:00,
2013-01-10 10:02:00,29.9,28.9,30.52,SE,138,3.0,4.0,96,0.00,,,0.00,Wunderground v.1.15,2013-01-10 15:02:00,
2013-01-10 10:03:00,29.9,28.9,30.52,SE,140,2.0,4.0,96,0.00,,,0.00,Wunderground v.1.15,2013-01-10 15:03:00,
2013-01-10 10:04:00,30.0,29.0,30.52,SE,142,3.0,5.0,96,0.00,,,0.00,Wunderground v.1.15,2013-01-10 15:04:00,
2013-01-10 10:06:00,30.2,29.2,30.52,SE,132,4.0,5.0,96,0.00,,,0.00,Wunderground v.1.15,2013-01-10 15:06:00,
2013-01-10 10:07:00,30.4,29.4,30.52,SE,138,3.0,5.0,96,0.00,,,0.00,Wunderground v.1.15,2013-01-10 15:07:00,
2013-01-10 10:08:00,30.4,29.4,30.52,SE,138,2.0,5.0,96,0.00,,,0.00,Wunderground v.1.15,2013-01-10 15:08:00,
2013-01-10 10:10:00,30.6,29.6,30.52,SSE,155,4.0,4.0,96,0.00,,,0.00,Wunderground v.1.15,2013-01-10 15:10:00,
2013-01-10 10:11:00,30.8,29.8,30.52,SE,138,2.0,5.0,96,0.00,,,0.00,Wunderground v.1.15,2013-01-10 15:11:00,
2013-01-10 10:13:00,30.9,29.6,30.52,SE,140,4.0,5.0,95,0.00,,,0.00,Wunderground v.1.15,2013-01-10 15:13:00,
2013-01-10 10:15:00,31.1,29.8,30.52,ESE,115,5.0,7.0,95,0.00,,,0.00,Wunderground v.1.15,2013-01-10 15:15:00,
2013-01-10 10:17:00,31.2,29.9,30.52,SE,145,2.0,7.0,95,0.00,,,0.00,Wunderground v.1.15,2013-01-10 15:17:00,
2013-01-10 10:18:00,31.3,30.0,30.52,SSE,149,3.0,7.0,95,0.00,,,0.00,Wunderground v.1.15,2013-01-10 15:18:00,
2013-01-10 10:20:00,31.5,30.2,30.52,SSE,150,2.0,4.0,95,0.00,,,0.00,Wunderground v.1.15,2013-01-10 15:20:00,
2013-01-10 10:22:00,31.6,30.3,30.52,SE,140,4.0,7.0,95,0.00,,,0.00,Wunderground v.1.15,2013-01-10 15:22:00,
2013-01-10 10:23:00,31.7,30.4,30.52,SE,142,2.0,7.0,95,0.00,,,0.00,Wunderground v.1.15,2013-01-10 15:23:00,
2013-01-10 10:24:00,31.8,30.5,30.52,SE,141,2.0,7.0,95,0.00,,,0.00,Wunderground v.1.15,2013-01-10 15:24:00,
2013-01-10 10:26:00,32.0,30.7,30.52,SE,145,3.0,7.0,95,0.00,,,0.00,Wunderground v.1.15,2013-01-10 15:26:00,
2013-01-10 10:27:00,32.1,30.8,30.52,SE,146,4.0,7.0,95,0.00,,,0.00,Wunderground v.1.15,2013-01-10 15:27:00,
2013-01-10 10:28:00,32.1,30.8,30.52,SE,142,2.0,7.0,95,0.00,,,0.00,Wunderground v.1.15,2013-01-10 15:28:00,
2013-01-10 10:30:00,32.3,31.0,30.52,SSE,149,2.0,5.0,95,0.00,,,0.00,Wunderground v.1.15,2013-01-10 15:30:00,
2013-01-10 10:31:00,32.4,31.1,30.51,SSE,150,2.0,7.0,95,0.00,,,0.00,Wunderground v.1.15,2013-01-10 15:31:00,
2013-01-10 10:32:00,32.5,31.2,30.51,SE,144,1.0,7.0,95,0.00,,,0.00,Wunderground v.1.15,2013-01-10 15:32:00,
2013-01-10 10:33:00,32.6,31.3,30.51,SE,140,3.0,7.0,95,0.00,,,0.00,Wunderground v.1.15,2013-01-10 15:33:00,
2013-01-10 10:35:00,32.8,31.3,30.50,SE,128,5.0,7.0,94,0.00,,,0.00,Wunderground v.1.15,2013-01-10 15:35:00,
2013-01-10 10:37:00,33.0,31.5,30.50,SSE,149,6.0,7.0,94,0.00,,,0.00,Wunderground v.1.15,2013-01-10 15:37:00,
2013-01-10 10:38:00,33.1,31.6,30.51,SSE,150,6.0,7.0,94,0.00,,,0.00,Wunderground v.1.15,2013-01-10 15:38:00,
2013-01-10 10:40:00,33.3,31.8,30.51,SE,141,2.0,6.0,94,0.00,,,0.00,Wunderground v.1.15,2013-01-10 15:40:00,
2013-01-10 10:42:00,33.4,31.9,30.50,ESE,123,6.0,6.0,94,0.00,,,0.00,Wunderground v.1.15,2013-01-10 15:42:00,
2013-01-10 10:43:00,33.5,32.0,30.50,SE,138,3.0,6.0,94,0.00,,,0.00,Wunderground v.1.15,2013-01-10 15:43:00,
2013-01-10 10:44:00,33.6,31.8,30.50,SSE,152,5.0,9.0,93,0.00,,,0.00,Wunderground v.1.15,2013-01-10 15:44:00,
2013-01-10 10:46:00,33.7,31.9,30.50,SE,130,6.0,9.0,93,0.00,,,0.00,Wunderground v.1.15,2013-01-10 15:46:00,
2013-01-10 10:48:00,33.9,32.1,30.50,ESE,117,10.0,10.0,93,0.00,,,0.00,Wunderground v.1.15,2013-01-10 15:48:00,
2013-01-10 10:49:00,34.0,31.9,30.50,SE,128,3.0,7.0,92,0.00,,,0.00,Wunderground v.1.15,2013-01-10 15:49:00,
2013-01-10 10:51:00,34.2,32.1,30.50,SE,132,3.0,7.0,92,0.00,,,0.00,Wunderground v.1.15,2013-01-10 15:51:00,
2013-01-10 10:53:00,34.4,32.3,30.50,SSE,153,4.0,7.0,92,0.00,,,0.00,Wunderground v.1.15,2013-01-10 15:53:00,
2013-01-10 10:54:00,34.4,32.0,30.50,SE,127,7.0,8.0,91,0.00,,,0.00,Wunderground v.1.15,2013-01-10 15:54:00,
2013-01-10 10:56:00,34.4,32.0,30.50,SE,138,5.0,8.0,91,0.00,,,0.00,Wunderground v.1.15,2013-01-10 15:56:00,
2013-01-10 10:58:00,34.7,32.1,30.50,SSE,157,3.0,8.0,90,0.00,,,0.00,Wunderground v.1.15,2013-01-10 15:58:00,
2013-01-10 10:59:00,34.7,32.1,30.50,SE,138,5.0,8.0,90,0.00,,,0.00,Wunderground v.1.15,2013-01-10 15:59:00,
2013-01-10 11:01:00,34.9,32.3,30.50,SSE,158,6.0,8.0,90,0.00,,,0.00,Wunderground v.1.15,2013-01-10 16:01:00,
2013-01-10 11:03:00,35.1,32.2,30.50,SE,139,7.0,9.0,89,0.00,,,0.00,Wunderground v.1.15,2013-01-10 16:03:00,
2013-01-10 11:04:00,35.2,32.3,30.50,SE,130,4.0,9.0,89,0.00,,,0.00,Wunderground v.1.15,2013-01-10 16:04:00,
2013-01-10 11:06:00,35.4,32.5,30.50,SSE,150,5.0,9.0,89,0.00,,,0.00,Wunderground v.1.15,2013-01-10 16:06:00,
2013-01-10 11:08:00,35.5,32.3,30.50,SE,137,5.0,9.0,88,0.00,,,0.00,Wunderground v.1.15,2013-01-10 16:08:00,
2013-01-10 11:09:00,35.6,32.4,30.50,ESE,113,4.0,6.0,88,0.00,,,0.00,Wunderground v.1.15,2013-01-10 16:09:00,
2013-01-10 11:11:00,35.8,32.3,30.50,SSE,159,5.0,6.0,87,0.00,,,0.00,Wunderground v.1.15,2013-01-10 16:11:00,
2013-01-10 11:13:00,36.0,32.2,30.49,SE,136,9.0,10.0,86,0.00,,,0.00,Wunderground v.1.15,2013-01-10 16:13:00,
2013-01-10 11:15:00,36.1,32.3,30.49,SE,140,6.0,10.0,86,0.00,,,0.00,Wunderground v.1.15,2013-01-10 16:15:00,
2013-01-10 11:16:00,36.3,32.5,30.49,SE,134,4.0,10.0,86,0.00,,,0.00,Wunderground v.1.15,2013-01-10 16:16:00,
2013-01-10 11:18:00,36.5,32.7,30.49,SE,144,2.0,10.0,86,0.00,,,0.00,Wunderground v.1.15,2013-01-10 16:18:00,
2013-01-10 11:20:00,36.7,32.6,30.49,SSE,149,5.0,10.0,85,0.00,,,0.00,Wunderground v.1.15,2013-01-10 16:20:00,
2013-01-10 11:22:00,36.9,32.8,30.49,SSE,151,3.0,10.0,85,0.00,,,0.00,Wunderground v.1.15,2013-01-10 16:22:00,
2013-01-10 11:23:00,37.1,32.7,30.49,East,88,5.0,10.0,84,0.00,,,0.00,Wunderground v.1.15,2013-01-10 16:23:00,
2013-01-10 11:25:00,37.2,32.8,30.49,ESE,117,1.0,10.0,84,0.00,,,0.00,Wunderground v.1.15,2013-01-10 16:25:00,
2013-01-10 11:26:00,37.3,32.9,30.49,SE,146,5.0,10.0,84,0.00,,,0.00,Wunderground v.1.15,2013-01-10 16:26:00,
2013-01-10 11:28:00,37.5,32.8,30.49,SSE,154,5.0,10.0,83,0.00,,,0.00,Wunderground v.1.15,2013-01-10 16:28:00,
2013-01-10 11:29:00,37.7,33.0,30.48,SSE,158,2.0,10.0,83,0.00,,,0.00,Wunderground v.1.15,2013-01-10 16:29:00,
2013-01-10 11:30:00,37.9,32.9,30.48,ESE,119,9.0,11.0,82,0.00,,,0.00,Wunderground v.1.15,2013-01-10 16:30:00,
2013-01-10 11:31:00,38.0,33.0,30.48,SE,141,10.0,11.0,82,0.00,,,0.00,Wunderground v.1.15,2013-01-10 16:31:00,
2013-01-10 11:33:00,38.2,32.9,30.48,SSE,148,4.0,11.0,81,0.00,,,0.00,Wunderground v.1.15,2013-01-10 16:33:00,
2013-01-10 11:34:00,38.3,32.7,30.48,SSE,149,6.0,11.0,80,0.00,,,0.00,Wunderground v.1.15,2013-01-10 16:34:00,
2013-01-10 11:35:00,38.3,32.4,30.48,SE,142,5.0,11.0,79,0.00,,,0.00,Wunderground v.1.15,2013-01-10 16:35:00,
2013-01-10 11:36:00,38.4,32.5,30.48,SE,135,7.0,11.0,79,0.00,,,0.00,Wunderground v.1.15,2013-01-10 16:36:00,
2013-01-10 11:39:00,38.6,32.3,30.48,SE,136,6.0,11.0,78,0.00,,,0.00,Wunderground v.1.15,2013-01-10 16:39:00,
2013-01-10 11:40:00,38.6,32.3,30.48,SE,142,5.0,7.0,78,0.00,,,0.00,Wunderground v.1.15,2013-01-10 16:40:00,
2013-01-10 11:41:00,38.7,32.1,30.48,SE,145,6.0,7.0,77,0.00,,,0.00,Wunderground v.1.15,2013-01-10 16:41:00,
2013-01-10 11:44:00,38.9,32.3,30.47,SSE,147,5.0,10.0,77,0.00,,,0.00,Wunderground v.1.15,2013-01-10 16:44:00,
2013-01-10 11:45:00,38.9,32.0,30.47,ESE,121,3.0,10.0,76,0.00,,,0.00,Wunderground v.1.15,2013-01-10 16:45:00,
2013-01-10 11:46:00,39.0,32.1,30.47,SE,128,0.0,10.0,76,0.00,,,0.00,Wunderground v.1.15,2013-01-10 16:46:00,
2013-01-10 11:47:00,39.0,32.1,30.47,SE,135,2.0,10.0,76,0.00,,,0.00,Wunderground v.1.15,2013-01-10 16:47:00,
2013-01-10 11:49:00,39.2,32.3,30.47,SSE,148,3.0,5.0,76,0.00,,,0.00,Wunderground v.1.15,2013-01-10 16:49:00,
2013-01-10 11:50:00,39.3,32.4,30.46,SE,142,5.0,6.0,76,0.00,,,0.00,Wunderground v.1.15,2013-01-10 16:50:00,
2013-01-10 11:52:00,39.4,32.5,30.46,SE,146,4.0,6.0,76,0.00,,,0.00,Wunderground v.1.15,2013-01-10 16:52:00,
2013-01-10 11:54:00,39.5,32.2,30.46,SE,134,6.0,10.0,75,0.00,,,0.00,Wunderground v.1.15,2013-01-10 16:54:00,
2013-01-10 11:55:00,39.5,31.9,30.46,ESE,119,2.0,10.0,74,0.00,,,0.00,Wunderground v.1.15,2013-01-10 16:55:00,
2013-01-10 11:57:00,39.5,31.9,30.46,SE,130,2.0,10.0,74,0.00,,,0.00,Wunderground v.1.15,2013-01-10 16:57:00,
2013-01-10 11:59:00,39.6,32.0,30.46,SSE,154,4.0,4.0,74,0.00,,,0.00,Wunderground v.1.15,2013-01-10 16:59:00,
2013-01-10 12:01:00,39.6,32.0,30.46,SSE,152,1.0,5.0,74,0.00,,,0.00,Wunderground v.1.15,2013-01-10 17:01:00,
2013-01-10 12:02:00,39.7,31.8,30.46,SE,134,1.0,5.0,73,0.00,,,0.00,Wunderground v.1.15,2013-01-10 17:02:00,
2013-01-10 12:05:00,39.7,31.8,30.45,SE,136,3.0,5.0,73,0.00,,,0.00,Wunderground v.1.15,2013-01-10 17:05:00,
2013-01-10 12:06:00,39.7,31.8,30.45,SSE,153,3.0,5.0,73,0.00,,,0.00,Wunderground v.1.15,2013-01-10 17:06:00,
2013-01-10 12:07:00,39.7,31.8,30.45,SSE,150,2.0,5.0,73,0.00,,,0.00,Wunderground v.1.15,2013-01-10 17:07:00,
2013-01-10 12:08:00,39.8,31.8,30.45,SE,142,2.0,7.0,73,0.00,,,0.00,Wunderground v.1.15,2013-01-10 17:08:00,
2013-01-10 12:10:00,39.9,31.9,30.45,SE,134,4.0,6.0,73,0.00,,,0.00,Wunderground v.1.15,2013-01-10 17:10:00,
2013-01-10 12:11:00,39.9,31.9,30.45,SSE,152,3.0,6.0,73,0.00,,,0.00,Wunderground v.1.15,2013-01-10 17:11:00,
2013-01-10 12:12:00,40.0,32.0,30.45,SSE,153,5.0,6.0,73,0.00,,,0.00,Wunderground v.1.15,2013-01-10 17:12:00,
2013-01-10 12:13:00,40.0,32.4,30.45,SSE,149,7.0,7.0,74,0.00,,,0.00,Wunderground v.1.15,2013-01-10 17:13:00,
2013-01-10 12:15:00,40.1,32.5,30.44,SE,137,1.0,7.0,74,0.00,,,0.00,Wunderground v.1.15,2013-01-10 17:15:00,
2013-01-10 12:16:00,40.2,32.6,30.44,SE,139,2.0,7.0,74,0.00,,,0.00,Wunderground v.1.15,2013-01-10 17:16:00,
2013-01-10 12:17:00,40.3,32.7,30.44,SSE,148,3.0,7.0,74,0.00,,,0.00,Wunderground v.1.15,2013-01-10 17:17:00,
2013-01-10 12:18:00,40.3,32.7,30.44,SE,133,1.0,7.0,74,0.00,,,0.00,Wunderground v.1.15,2013-01-10 17:18:00,
2013-01-10 12:20:00,40.5,32.9,30.44,SSE,150,4.0,5.0,74,0.00,,,0.00,Wunderground v.1.15,2013-01-10 17:20:00,
2013-01-10 12:21:00,40.5,32.9,30.44,SSE,161,2.0,5.0,74,0.00,,,0.00,Wunderground v.1.15,2013-01-10 17:21:00,
2013-01-10 12:23:00,40.8,33.5,30.44,SSE,155,3.0,6.0,75,0.00,,,0.00,Wunderground v.1.15,2013-01-10 17:23:00,
2013-01-10 12:24:00,41.0,33.7,30.44,SSE,155,4.0,6.0,75,0.00,,,0.00,Wunderground v.1.15,2013-01-10 17:24:00,
2013-01-10 12:26:00,41.2,33.9,30.43,SSE,167,3.0,6.0,75,0.00,,,0.00,Wunderground v.1.15,2013-01-10 17:26:00,
2013-01-10 12:28:00,41.5,33.8,30.44,SE,145,3.0,6.0,74,0.00,,,0.00,Wunderground v.1.15,2013-01-10 17:28:00,
2013-01-10 12:29:00,41.6,33.6,30.44,SE,138,4.0,7.0,73,0.00,,,0.00,Wunderground v.1.15,2013-01-10 17:29:00,
2013-01-10 12:31:00,41.8,33.4,30.43,SSE,155,6.0,10.0,72,0.00,,,0.00,Wunderground v.1.15,2013-01-10 17:31:00,
2013-01-10 12:32:00,41.9,33.5,30.43,SE,140,8.0,10.0,72,0.00,,,0.00,Wunderground v.1.15,2013-01-10 17:32:00,
2013-01-10 12:33:00,42.0,33.6,30.43,SSE,159,1.0,10.0,72,0.00,,,0.00,Wunderground v.1.15,2013-01-10 17:33:00,
2013-01-10 12:34:00,42.1,33.4,30.43,SSE,150,5.0,10.0,71,0.00,,,0.00,Wunderground v.1.15,2013-01-10 17:34:00,
2013-01-10 12:36:00,42.3,33.2,30.43,SE,132,2.0,10.0,70,0.00,,,0.00,Wunderground v.1.15,2013-01-10 17:36:00,
2013-01-10 12:37:00,42.3,33.2,30.43,SE,137,2.0,10.0,70,0.00,,,0.00,Wunderground v.1.15,2013-01-10 17:37:00,
2013-01-10 12:39:00,42.4,33.3,30.43,SE,142,0.0,10.0,70,0.00,,,0.00,Wunderground v.1.15,2013-01-10 17:39:00,
2013-01-10 12:41:00,42.6,33.5,30.43,SSE,161,2.0,6.0,70,0.00,,,0.00,Wunderground v.1.15,2013-01-10 17:41:00,
2013-01-10 12:42:00,42.6,33.5,30.43,ESE,121,3.0,6.0,70,0.00,,,0.00,Wunderground v.1.15,2013-01-10 17:42:00,
2013-01-10 12:44:00,42.7,33.6,30.43,SSE,152,4.0,8.0,70,0.00,,,0.00,Wunderground v.1.15,2013-01-10 17:44:00,
2013-01-10 12:47:00,43.0,33.9,30.42,East,97,2.0,9.0,70,0.00,,,0.00,Wunderground v.1.15,2013-01-10 17:47:00,
2013-01-10 12:49:00,43.1,33.3,30.42,SE,138,4.0,4.0,68,0.00,,,0.00,Wunderground v.1.15,2013-01-10 17:49:00,
2013-01-10 12:52:00,43.2,33.3,30.42,East,101,2.0,6.0,68,0.00,,,0.00,Wunderground v.1.15,2013-01-10 17:52:00,
2013-01-10 12:54:00,43.4,33.5,30.42,SE,146,1.0,6.0,68,0.00,,,0.00,Wunderground v.1.15,2013-01-10 17:54:00,
2013-01-10 12:55:00,43.4,33.5,30.42,SE,130,2.0,6.0,68,0.00,,,0.00,Wunderground v.1.15,2013-01-10 17:55:00,
2013-01-10 12:57:00,43.6,33.7,30.41,East,92,6.0,7.0,68,0.00,,,0.00,Wunderground v.1.15,2013-01-10 17:57:00,
2013-01-10 13:00:00,43.8,33.9,30.41,SSE,155,5.0,5.0,68,0.00,,,0.00,Wunderground v.1.15,2013-01-10 18:00:00,
2013-01-10 13:02:00,44.0,33.4,30.41,SSE,159,5.0,11.0,66,0.00,,,0.00,Wunderground v.1.15,2013-01-10 18:02:00,
2013-01-10 13:03:00,44.0,33.4,30.41,SE,133,4.0,11.0,66,0.00,,,0.00,Wunderground v.1.15,2013-01-10 18:03:00,
2013-01-10 13:05:00,44.0,32.6,30.41,SSE,153,6.0,11.0,64,0.00,,,0.00,Wunderground v.1.15,2013-01-10 18:05:00,
2013-01-10 13:07:00,44.0,32.2,30.41,ESE,117,6.0,12.0,63,0.00,,,0.00,Wunderground v.1.15,2013-01-10 18:07:00,
2013-01-10 13:08:00,44.0,32.2,30.41,SE,125,6.0,12.0,63,0.00,,,0.00,Wunderground v.1.15,2013-01-10 18:08:00,
2013-01-10 13:10:00,44.0,32.2,30.41,SSE,148,5.0,7.0,63,0.00,,,0.00,Wunderground v.1.15,2013-01-10 18:10:00,
2013-01-10 13:13:00,43.9,32.1,30.41,SE,131,1.0,11.0,63,0.00,,,0.00,Wunderground v.1.15,2013-01-10 18:13:00,
2013-01-10 13:15:00,43.8,32.0,30.40,ESE,123,9.0,11.0,63,0.00,,,0.00,Wunderground v.1.15,2013-01-10 18:15:00,
2013-01-10 13:18:00,43.7,32.3,30.39,SSE,155,2.0,11.0,64,0.00,,,0.00,Wunderground v.1.15,2013-01-10 18:18:00,
2013-01-10 13:19:00,43.7,32.3,30.39,SE,134,5.0,11.0,64,0.00,,,0.00,Wunderground v.1.15,2013-01-10 18:19:00,
2013-01-10 13:20:00,43.7,32.7,30.39,SE,141,2.0,8.0,65,0.00,,,0.00,Wunderground v.1.15,2013-01-10 18:20:00,
2013-01-10 13:23:00,43.8,32.8,30.38,SSE,150,5.0,11.0,65,0.00,,,0.00,Wunderground v.1.15,2013-01-10 18:23:00,
2013-01-10 13:24:00,43.8,32.8,30.38,SE,130,6.0,11.0,65,0.00,,,0.00,Wunderground v.1.15,2013-01-10 18:24:00,
2013-01-10 13:25:00,43.8,32.8,30.38,SE,143,3.0,11.0,65,0.00,,,0.00,Wunderground v.1.15,2013-01-10 18:25:00,
2013-01-10 13:26:00,43.8,32.4,30.38,SE,136,5.0,11.0,64,0.00,,,0.00,Wunderground v.1.15,2013-01-10 18:26:00,
2013-01-10 13:28:00,43.8,32.4,30.38,SE,144,7.0,11.0,64,0.00,,,0.00,Wunderground v.1.15,2013-01-10 18:28:00,
2013-01-10 13:29:00,43.8,32.4,30.38,SSE,153,7.0,10.0,64,0.00,,,0.00,Wunderground v.1.15,2013-01-10 18:29:00,
2013-01-10 13:30:00,43.8,32.8,30.38,SSE,159,6.0,10.0,65,0.00,,,0.00,Wunderground v.1.15,2013-01-10 18:30:00,
2013-01-10 13:31:00,43.8,32.8,30.38,SSE,165,7.0,10.0,65,0.00,,,0.00,Wunderground v.1.15,2013-01-10 18:31:00,
2013-01-10 13:33:00,43.7,32.3,30.39,ESE,108,3.0,10.0,64,0.00,,,0.00,Wunderground v.1.15,2013-01-10 18:33:00,
2013-01-10 13:34:00,43.6,32.2,30.38,SE,138,3.0,10.0,64,0.00,,,0.00,Wunderground v.1.15,2013-01-10 18:34:00,
2013-01-10 13:36:00,43.6,32.2,30.38,SE,138,4.0,10.0,64,0.00,,,0.00,Wunderground v.1.15,2013-01-10 18:36:00,
2013-01-10 13:39:00,43.5,32.5,30.38,SE,143,4.0,10.0,65,0.00,,,0.00,Wunderground v.1.15,2013-01-10 18:39:00,
2013-01-10 13:41:00,43.5,32.5,30.38,SSE,159,4.0,7.0,65,0.00,,,0.00,Wunderground v.1.15,2013-01-10 18:41:00,
2013-01-10 13:44:00,43.4,32.4,30.38,ESE,120,2.0,7.0,65,0.00,,,0.00,Wunderground v.1.15,2013-01-10 18:44:00,
2013-01-10 13:46:00,43.4,32.4,30.38,SE,140,7.0,7.0,65,0.00,,,0.00,Wunderground v.1.15,2013-01-10 18:46:00,
2013-01-10 13:49:00,43.4,32.4,30.37,SE,128,7.0,11.0,65,0.00,,,0.00,Wunderground v.1.15,2013-01-10 18:49:00,
2013-01-10 13:50:00,43.3,32.3,30.37,SSE,150,6.0,10.0,65,0.00,,,0.00,Wunderground v.1.15,2013-01-10 18:50:00,
2013-01-10 13:51:00,43.3,32.3,30.37,NE,37,0.0,10.0,65,0.00,,,0.00,Wunderground v.1.15,2013-01-10 18:51:00,
2013-01-10 13:54:00,43.3,32.3,30.36,SE,137,5.0,10.0,65,0.00,,,0.00,Wunderground v.1.15,2013-01-10 18:54:00,
2013-01-10 13:55:00,43.3,32.3,30.36,SSE,157,4.0,10.0,65,0.00,,,0.00,Wunderground v.1.15,2013-01-10 18:55:00,
2013-01-10 13:56:00,43.3,32.3,30.36,SE,141,6.0,10.0,65,0.00,,,0.00,Wunderground v.1.15,2013-01-10 18:56:00,
2013-01-10 13:57:00,43.3,32.3,30.36,SSE,153,4.0,10.0,65,0.00,,,0.00,Wunderground v.1.15,2013-01-10 18:57:00,
2013-01-10 13:59:00,43.2,32.2,30.36,SSE,152,6.0,6.0,65,0.00,,,0.00,Wunderground v.1.15,2013-01-10 18:59:00,
2013-01-10 14:01:00,43.2,32.2,30.36,SE,139,3.0,6.0,65,0.00,,,0.00,Wunderground v.1.15,2013-01-10 19:01:00,
2013-01-10 14:02:00,43.2,32.2,30.36,South,176,3.0,6.0,65,0.00,,,0.00,Wunderground v.1.15,2013-01-10 19:02:00,
2013-01-10 14:04:00,43.2,32.2,30.36,SSE,167,7.0,7.0,65,0.00,,,0.00,Wunderground v.1.15,2013-01-10 19:04:00,
2013-01-10 14:06:00,43.2,32.2,30.36,SE,144,3.0,7.0,65,0.00,,,0.00,Wunderground v.1.15,2013-01-10 19:06:00,
2013-01-10 14:07:00,43.1,32.1,30.35,SSE,166,6.0,10.0,65,0.00,,,0.00,Wunderground v.1.15,2013-01-10 19:07:00,
2013-01-10 14:10:00,43.0,32.0,30.35,SE,138,3.0,9.0,65,0.00,,,0.00,Wunderground v.1.15,2013-01-10 19:10:00,
2013-01-10 14:11:00,43.0,32.0,30.35,SE,134,4.0,9.0,65,0.00,,,0.00,Wunderground v.1.15,2013-01-10 19:11:00,
2013-01-10 14:12:00,42.9,32.3,30.35,SE,136,2.0,9.0,66,0.00,,,0.00,Wunderground v.1.15,2013-01-10 19:12:00,
2013-01-10 14:13:00,42.9,32.3,30.35,SSE,149,3.0,9.0,66,0.00,,,0.00,Wunderground v.1.15,2013-01-10 19:13:00,
2013-01-10 14:15:00,42.9,32.3,30.35,SE,126,3.0,10.0,66,0.00,,,0.00,Wunderground v.1.15,2013-01-10 19:15:00,
2013-01-10 14:16:00,42.9,32.3,30.35,SSE,152,1.0,10.0,66,0.00,,,0.00,Wunderground v.1.15,2013-01-10 19:16:00,
2013-01-10 14:18:00,42.9,32.3,30.35,SE,134,2.0,10.0,66,0.00,,,0.00,Wunderground v.1.15,2013-01-10 19:18:00,
2013-01-10 14:20:00,42.9,32.3,30.35,South,180,3.0,4.0,66,0.00,,,0.00,Wunderground v.1.15,2013-01-10 19:20:00,
2013-01-10 14:21:00,43.0,32.4,30.35,SE,138,0.0,4.0,66,0.00,,,0.00,Wunderground v.1.15,2013-01-10 19:21:00,
2013-01-10 14:23:00,43.0,32.4,30.35,SSE,155,3.0,6.0,66,0.00,,,0.00,Wunderground v.1.15,2013-01-10 19:23:00,
2013-01-10 14:25:00,43.1,32.5,30.35,SSE,159,2.0,6.0,66,0.00,,,0.00,Wunderground v.1.15,2013-01-10 19:25:00,
2013-01-10 14:26:00,43.1,32.5,30.35,SSE,150,7.0,7.0,66,0.00,,,0.00,Wunderground v.1.15,2013-01-10 19:26:00,
2013-01-10 14:28:00,43.2,32.6,30.35,SSE,155,1.0,9.0,66,0.00,,,0.00,Wunderground v.1.15,2013-01-10 19:28:00,
2013-01-10 14:29:00,43.2,32.2,30.35,SSE,165,9.0,9.0,65,0.00,,,0.00,Wunderground v.1.15,2013-01-10 19:29:00,
2013-01-10 14:30:00,43.2,32.2,30.35,SSE,151,5.0,7.0,65,0.00,,,0.00,Wunderground v.1.15,2013-01-10 19:30:00,
2013-01-10 14:33:00,43.2,32.2,30.35,SE,131,2.0,7.0,65,0.00,,,0.00,Wunderground v.1.15,2013-01-10 19:33:00,
2013-01-10 14:34:00,43.2,32.2,30.35,SSE,153,2.0,7.0,65,0.00,,,0.00,Wunderground v.1.15,2013-01-10 19:34:00,
2013-01-10 14:36:00,43.2,32.2,30.35,SSE,154,6.0,7.0,65,0.00,,,0.00,Wunderground v.1.15,2013-01-10 19:36:00,
2013-01-10 14:38:00,43.2,32.2,30.34,SE,140,4.0,7.0,65,0.00,,,0.00,Wunderground v.1.15,2013-01-10 19:38:00,
2013-01-10 14:39:00,43.2,32.2,30.34,East,101,3.0,10.0,65,0.00,,,0.00,Wunderground v.1.15,2013-01-10 19:39:00,
2013-01-10 14:41:00,43.2,32.2,30.35,SE,140,3.0,4.0,65,0.00,,,0.00,Wunderground v.1.15,2013-01-10 19:41:00,
2013-01-10 14:43:00,43.3,32.3,30.34,SE,130,3.0,6.0,65,0.00,,,0.00,Wunderground v.1.15,2013-01-10 19:43:00,
2013-01-10 14:44:00,43.3,32.3,30.34,SSE,150,5.0,6.0,65,0.00,,,0.00,Wunderground v.1.15,2013-01-10 19:44:00,
2013-01-10 14:46:00,43.3,32.3,30.34,SSE,153,2.0,7.0,65,0.00,,,0.00,Wunderground v.1.15,2013-01-10 19:46:00,
2013-01-10 14:48:00,43.2,32.2,30.34,SE,132,5.0,7.0,65,0.00,,,0.00,Wunderground v.1.15,2013-01-10 19:48:00,
2013-01-10 14:49:00,43.2,32.2,30.34,SE,126,4.0,5.0,65,0.00,,,0.00,Wunderground v.1.15,2013-01-10 19:49:00,
2013-01-10 14:51:00,43.2,32.2,30.34,ESE,121,2.0,9.0,65,0.00,,,0.00,Wunderground v.1.15,2013-01-10 19:51:00,
2013-01-10 14:53:00,43.2,32.2,30.34,SE,138,3.0,9.0,65,0.00,,,0.00,Wunderground v.1.15,2013-01-10 19:53:00,
2013-01-10 14:54:00,43.2,32.2,30.34,SSE,153,3.0,9.0,65,0.00,,,0.00,Wunderground v.1.15,2013-01-10 19:54:00,
2013-01-10 14:56:00,43.1,32.1,30.34,SE,138,5.0,9.0,65,0.00,,,0.00,Wunderground v.1.15,2013-01-10 19:56:00,
2013-01-10 14:58:00,43.1,32.1,30.34,SE,144,3.0,9.0,65,0.00,,,0.00,Wunderground v.1.15,2013-01-10 19:58:00,
2013-01-10 14:59:00,43.1,32.1,30.34,SSE,151,4.0,5.0,65,0.00,,,0.00,Wunderground v.1.15,2013-01-10 19:59:00,
2013-01-10 15:02:00,43.2,32.2,30.34,SSE,150,2.0,9.0,65,0.00,,,0.00,Wunderground v.1.15,2013-01-10 20:02:00,
2013-01-10 15:03:00,43.2,32.2,30.33,SE,139,4.0,9.0,65,0.00,,,0.00,Wunderground v.1.15,2013-01-10 20:03:00,
2013-01-10 15:04:00,43.1,32.1,30.33,SE,146,5.0,9.0,65,0.00,,,0.00,Wunderground v.1.15,2013-01-10 20:04:00,
2013-01-10 15:07:00,43.2,32.2,30.33,SE,146,4.0,9.0,65,0.00,,,0.00,Wunderground v.1.15,2013-01-10 20:07:00,
2013-01-10 15:09:00,43.2,32.6,30.33,SE,133,3.0,9.0,66,0.00,,,0.00,Wunderground v.1.15,2013-01-10 20:09:00,
2013-01-10 15:10:00,43.2,32.6,30.33,SE,142,4.0,4.0,66,0.00,,,0.00,Wunderground v.1.15,2013-01-10 20:10:00,
2013-01-10 15:12:00,43.3,32.7,30.33,SSE,168,5.0,6.0,66,0.00,,,0.00,Wunderground v.1.15,2013-01-10 20:12:00,
2013-01-10 15:14:00,43.3,32.7,30.33,SE,146,3.0,7.0,66,0.00,,,0.00,Wunderground v.1.15,2013-01-10 20:14:00,
2013-01-10 15:15:00,43.3,32.7,30.33,SE,138,4.0,7.0,66,0.00,,,0.00,Wunderground v.1.15,2013-01-10 20:15:00,
2013-01-10 15:17:00,43.3,32.3,30.33,SE,137,5.0,7.0,65,0.00,,,0.00,Wunderground v.1.15,2013-01-10 20:17:00,
2013-01-10 15:20:00,43.4,32.8,30.32,SSE,148,3.0,4.0,66,0.00,,,0.00,Wunderground v.1.15,2013-01-10 20:20:00,
2013-01-10 15:22:00,43.4,32.4,30.32,SE,134,11.0,11.0,65,0.00,,,0.00,Wunderground v.1.15,2013-01-10 20:22:00,
2013-01-10 15:25:00,43.3,32.3,30.32,SE,142,4.0,11.0,65,0.00,,,0.00,Wunderground v.1.15,2013-01-10 20:25:00,
2013-01-10 15:27:00,43.2,32.2,30.32,SE,138,3.0,11.0,65,0.00,,,0.00,Wunderground v.1.15,2013-01-10 20:27:00,
2013-01-10 15:30:00,43.2,32.2,30.32,SE,133,4.0,9.0,65,0.00,,,0.00,Wunderground v.1.15,2013-01-10 20:30:00,
2013-01-10 15:32:00,43.1,32.1,30.31,SE,145,2.0,9.0,65,0.00,,,0.00,Wunderground v.1.15,2013-01-10 20:32:00,
2013-01-10 15:35:00,43.0,32.0,30.31,SSE,148,5.0,9.0,65,0.00,,,0.00,Wunderground v.1.15,2013-01-10 20:35:00,
2013-01-10 15:37:00,42.9,32.3,30.31,SE,132,6.0,9.0,66,0.00,,,0.00,Wunderground v.1.15,2013-01-10 20:37:00,
2013-01-10 15:40:00,42.8,32.2,30.30,SSE,155,5.0,7.0,66,0.00,,,0.00,Wunderground v.1.15,2013-01-10 20:40:00,
2013-01-10 15:43:00,42.7,31.7,30.30,ESE,111,5.0,7.0,65,0.00,,,0.00,Wunderground v.1.15,2013-01-10 20:43:00,
2013-01-10 15:45:00,42.7,31.7,30.30,ESE,115,0.0,7.0,65,0.00,,,0.00,Wunderground v.1.15,2013-01-10 20:45:00,
2013-01-10 15:46:00,42.7,31.7,30.30,SSE,161,2.0,7.0,65,0.00,,,0.00,Wunderground v.1.15,2013-01-10 20:46:00,
2013-01-10 15:48:00,42.6,31.7,30.30,SE,133,5.0,9.0,65,0.00,,,0.00,Wunderground v.1.15,2013-01-10 20:48:00,
2013-01-10 15:50:00,42.4,31.5,30.30,SE,144,4.0,7.0,65,0.00,,,0.00,Wunderground v.1.15,2013-01-10 20:50:00,
2013-01-10 15:51:00,42.4,31.5,30.30,SSE,159,7.0,7.0,65,0.00,,,0.00,Wunderground v.1.15,2013-01-10 20:51:00,
2013-01-10 15:53:00,42.3,31.4,30.30,SSE,150,6.0,8.0,65,0.00,,,0.00,Wunderground v.1.15,2013-01-10 20:53:00,
2013-01-10 15:55:00,42.2,31.6,30.30,ENE,57,2.0,10.0,66,0.00,,,0.00,Wunderground v.1.15,2013-01-10 20:55:00,
2013-01-10 15:56:00,42.2,31.6,30.30,SE,140,2.0,10.0,66,0.00,,,0.00,Wunderground v.1.15,2013-01-10 20:56:00,
2013-01-10 15:58:00,42.1,31.2,30.29,SE,132,4.0,10.0,65,0.00,,,0.00,Wunderground v.1.15,2013-01-10 20:58:00,
2013-01-10 16:00:00,41.9,31.0,30.29,SE,130,4.0,11.0,65,0.00,,,0.00,Wunderground v.1.15,2013-01-10 21:00:00,
2013-01-10 16:01:00,41.9,31.4,30.29,ESE,123,7.0,11.0,66,0.00,,,0.00,Wunderground v.1.15,2013-01-10 21:01:00,
2013-01-10 16:03:00,41.8,31.3,30.29,SE,129,9.0,11.0,66,0.00,,,0.00,Wunderground v.1.15,2013-01-10 21:03:00,
2013-01-10 16:05:00,41.6,31.1,30.29,SE,137,3.0,11.0,66,0.00,,,0.00,Wunderground v.1.15,2013-01-10 21:05:00,
2013-01-10 16:06:00,41.6,31.1,30.29,SE,138,7.0,11.0,66,0.00,,,0.00,Wunderground v.1.15,2013-01-10 21:06:00,
2013-01-10 16:08:00,41.5,31.0,30.29,East,96,1.0,11.0,66,0.00,,,0.00,Wunderground v.1.15,2013-01-10 21:08:00,
2013-01-10 16:10:00,41.5,31.0,30.28,East,82,5.0,13.0,66,0.00,,,0.00,Wunderground v.1.15,2013-01-10 21:10:00,
2013-01-10 16:12:00,41.4,30.5,30.28,ESE,123,4.0,13.0,65,0.00,,,0.00,Wunderground v.1.15,2013-01-10 21:12:00,
2013-01-10 16:14:00,41.3,30.8,30.28,SSE,148,4.0,13.0,66,0.00,,,0.00,Wunderground v.1.15,2013-01-10 21:14:00,
2013-01-10 16:15:00,41.3,30.8,30.28,ESE,109,5.0,13.0,66,0.00,,,0.00,Wunderground v.1.15,2013-01-10 21:15:00,
2013-01-10 16:17:00,41.3,30.8,30.28,SE,130,6.0,13.0,66,0.00,,,0.00,Wunderground v.1.15,2013-01-10 21:17:00,
2013-01-10 16:19:00,41.2,30.7,30.28,SE,142,4.0,13.0,66,0.00,,,0.00,Wunderground v.1.15,2013-01-10 21:19:00,
2013-01-10 16:20:00,41.2,30.7,30.28,SE,134,1.0,7.0,66,0.00,,,0.00,Wunderground v.1.15,2013-01-10 21:20:00,
2013-01-10 16:22:00,41.1,30.6,30.28,SE,142,2.0,7.0,66,0.00,,,0.00,Wunderground v.1.15,2013-01-10 21:22:00,
2013-01-10 16:24:00,41.1,31.0,30.28,ESE,123,3.0,7.0,67,0.00,,,0.00,Wunderground v.1.15,2013-01-10 21:24:00,
2013-01-10 16:26:00,41.1,31.0,30.28,SE,138,3.0,9.0,67,0.00,,,0.00,Wunderground v.1.15,2013-01-10 21:26:00,
2013-01-10 16:27:00,41.1,31.0,30.27,SE,130,2.0,9.0,67,0.00,,,0.00,Wunderground v.1.15,2013-01-10 21:27:00,
2013-01-10 16:29:00,41.1,31.0,30.27,SE,129,5.0,9.0,67,0.00,,,0.00,Wunderground v.1.15,2013-01-10 21:29:00,
2013-01-10 16:31:00,41.1,31.0,30.27,SE,128,3.0,7.0,67,0.00,,,0.00,Wunderground v.1.15,2013-01-10 21:31:00,
2013-01-10 16:32:00,41.0,30.9,30.27,SSE,165,6.0,9.0,67,0.00,,,0.00,Wunderground v.1.15,2013-01-10 21:32:00,
2013-01-10 16:34:00,41.0,32.3,30.27,SSE,150,4.0,9.0,71,0.00,,,0.00,Wunderground v.1.15,2013-01-10 21:34:00,
2013-01-10 16:36:00,40.9,31.1,30.27,SE,138,4.0,9.0,68,0.00,,,0.00,Wunderground v.1.15,2013-01-10 21:36:00,
2013-01-10 16:38:00,40.9,31.1,30.27,SE,127,4.0,9.0,68,0.00,,,0.00,Wunderground v.1.15,2013-01-10 21:38:00,
2013-01-10 16:39:00,40.9,31.1,30.27,SE,138,5.0,5.0,68,0.00,,,0.00,Wunderground v.1.15,2013-01-10 21:39:00,
2013-01-10 16:41:00,40.8,31.1,30.27,SE,133,5.0,10.0,68,0.00,,,0.00,Wunderground v.1.15,2013-01-10 21:41:00,
2013-01-10 16:43:00,40.8,31.1,30.27,ESE,122,4.0,10.0,68,0.00,,,0.00,Wunderground v.1.15,2013-01-10 21:43:00,
2013-01-10 16:44:00,40.7,31.0,30.27,SE,137,3.0,10.0,68,0.00,,,0.00,Wunderground v.1.15,2013-01-10 21:44:00,
2013-01-10 16:46:00,40.7,31.0,30.27,SE,132,3.0,10.0,68,0.00,,,0.00,Wunderground v.1.15,2013-01-10 21:46:00,
2013-01-10 16:48:00,40.7,31.0,30.28,ESE,115,5.0,10.0,68,0.00,,,0.00,Wunderground v.1.15,2013-01-10 21:48:00,
2013-01-10 16:50:00,40.6,30.9,30.28,East,101,6.0,9.0,68,0.00,,,0.00,Wunderground v.1.15,2013-01-10 21:50:00,
2013-01-10 16:52:00,40.6,30.5,30.27,SE,136,2.0,9.0,67,0.00,,,0.00,Wunderground v.1.15,2013-01-10 21:52:00,
2013-01-10 16:53:00,40.6,30.5,30.27,SSE,161,4.0,9.0,67,0.00,,,0.00,Wunderground v.1.15,2013-01-10 21:53:00,
2013-01-10 16:55:00,40.6,30.5,30.27,SE,125,4.0,9.0,67,0.00,,,0.00,Wunderground v.1.15,2013-01-10 21:55:00,
2013-01-10 16:57:00,40.6,30.5,30.28,East,92,3.0,9.0,67,0.00,,,0.00,Wunderground v.1.15,2013-01-10 21:57:00,
2013-01-10 16:59:00,40.5,30.4,30.28,SSE,155,2.0,9.0,67,0.00,,,0.00,Wunderground v.1.15,2013-01-10 21:59:00,
2013-01-10 17:00:00,40.5,30.4,30.28,SE,138,4.0,9.0,67,0.00,,,0.00,Wunderground v.1.15,2013-01-10 22:00:00,
2013-01-10 17:02:00,40.5,30.4,30.28,SE,138,1.0,10.0,67,0.00,,,0.00,Wunderground v.1.15,2013-01-10 22:02:00,
2013-01-10 17:04:00,40.5,30.4,30.28,SSE,159,5.0,10.0,67,0.00,,,0.00,Wunderground v.1.15,2013-01-10 22:04:00,
2013-01-10 17:05:00,40.4,30.3,30.27,SSE,164,4.0,10.0,67,0.00,,,0.00,Wunderground v.1.15,2013-01-10 22:05:00,
2013-01-10 17:08:00,40.4,30.3,30.27,SE,142,7.0,10.0,67,0.00,,,0.00,Wunderground v.1.15,2013-01-10 22:08:00,
2013-01-10 17:09:00,40.4,30.3,30.27,East,96,8.0,10.0,67,0.00,,,0.00,Wunderground v.1.15,2013-01-10 22:09:00,
2013-01-10 17:11:00,40.3,30.2,30.27,SE,136,1.0,11.0,67,0.00,,,0.00,Wunderground v.1.15,2013-01-10 22:11:00,
2013-01-10 17:13:00,40.2,30.1,30.27,ESE,113,2.0,11.0,67,0.00,,,0.00,Wunderground v.1.15,2013-01-10 22:13:00,
2013-01-10 17:14:00,40.2,30.1,30.27,SE,140,4.0,11.0,67,0.00,,,0.00,Wunderground v.1.15,2013-01-10 22:14:00,
2013-01-10 17:16:00,40.2,30.1,30.27,SSE,150,10.0,11.0,67,0.00,,,0.00,Wunderground v.1.15,2013-01-10 22:16:00,
2013-01-10 17:18:00,40.2,30.1,30.27,SSE,152,7.0,11.0,67,0.00,,,0.00,Wunderground v.1.15,2013-01-10 22:18:00,
2013-01-10 17:19:00,40.1,30.0,30.26,SE,146,7.0,11.0,67,0.00,,,0.00,Wunderground v.1.15,2013-01-10 22:19:00,
2013-01-10 17:22:00,40.1,30.0,30.26,ESE,123,5.0,9.0,67,0.00,,,0.00,Wunderground v.1.15,2013-01-10 22:22:00,
2013-01-10 17:23:00,40.1,30.0,30.26,SE,140,4.0,9.0,67,0.00,,,0.00,Wunderground v.1.15,2013-01-10 22:23:00,
2013-01-10 17:24:00,40.1,30.0,30.26,SE,142,3.0,9.0,67,0.00,,,0.00,Wunderground v.1.15,2013-01-10 22:24:00,
2013-01-10 17:27:00,40.1,30.0,30.27,SSE,153,5.0,9.0,67,0.00,,,0.00,Wunderground v.1.15,2013-01-10 22:27:00,
2013-01-10 17:28:00,40.1,30.0,30.26,SE,146,6.0,9.0,67,0.00,,,0.00,Wunderground v.1.15,2013-01-10 22:28:00,
2013-01-10 17:29:00,40.1,30.0,30.27,SE,141,7.0,10.0,67,0.00,,,0.00,Wunderground v.1.15,2013-01-10 22:29:00,
2013-01-10 17:33:00,40.0,29.9,30.27,SE,138,4.0,11.0,67,0.00,,,0.00,Wunderground v.1.15,2013-01-10 22:33:00,
2013-01-10 17:34:00,40.0,29.9,30.26,SSE,154,4.0,11.0,67,0.00,,,0.00,Wunderground v.1.15,2013-01-10 22:34:00,
2013-01-10 17:38:00,40.0,29.9,30.25,SE,136,7.0,11.0,67,0.00,,,0.00,Wunderground v.1.15,2013-01-10 22:38:00,
2013-01-10 17:39:00,39.9,29.8,30.25,SE,141,5.0,6.0,67,0.00,,,0.00,Wunderground v.1.15,2013-01-10 22:39:00,
2013-01-10 17:43:00,39.9,29.8,30.25,SSE,148,4.0,13.0,67,0.00,,,0.00,Wunderground v.1.15,2013-01-10 22:43:00,
2013-01-10 17:44:00,39.9,29.8,30.25,SE,133,6.0,13.0,67,0.00,,,0.00,Wunderground v.1.15,2013-01-10 22:44:00,
2013-01-10 17:45:00,39.9,29.8,30.25,SE,138,8.0,13.0,67,0.00,,,0.00,Wunderground v.1.15,2013-01-10 22:45:00,
2013-01-10 17:48:00,39.9,29.8,30.25,SE,140,6.0,13.0,67,0.00,,,0.00,Wunderground v.1.15,2013-01-10 22:48:00,
2013-01-10 17:50:00,39.9,29.8,30.25,East,88,2.0,10.0,67,0.00,,,0.00,Wunderground v.1.15,2013-01-10 22:50:00,
2013-01-10 17:53:00,39.9,29.8,30.25,SSE,164,3.0,10.0,67,0.00,,,0.00,Wunderground v.1.15,2013-01-10 22:53:00,
2013-01-10 17:55:00,39.8,29.7,30.25,SSE,160,5.0,10.0,67,0.00,,,0.00,Wunderground v.1.15,2013-01-10 22:55:00,
2013-01-10 17:58:00,39.9,29.8,30.25,SE,146,3.0,10.0,67,0.00,,,0.00,Wunderground v.1.15,2013-01-10 22:58:00,
2013-01-10 18:00:00,39.9,29.8,30.25,SE,142,5.0,6.0,67,0.00,,,0.00,Wunderground v.1.15,2013-01-10 23:00:00,
2013-01-10 18:01:00,39.9,30.2,30.25,SSE,157,11.0,11.0,68,0.00,,,0.00,Wunderground v.1.15,2013-01-10 23:01:00,
2013-01-10 18:03:00,39.8,30.8,30.25,ESE,113,9.0,11.0,70,0.00,,,0.00,Wunderground v.1.15,2013-01-10 23:03:00,
2013-01-10 18:05:00,39.8,30.8,30.25,SSE,150,9.0,11.0,70,0.00,,,0.00,Wunderground v.1.15,2013-01-10 23:05:00,
2013-01-10 18:06:00,39.7,31.1,30.25,SE,125,6.0,11.0,71,0.00,,,0.00,Wunderground v.1.15,2013-01-10 23:06:00,
2013-01-10 18:08:00,39.7,31.4,30.25,SSE,160,5.0,11.0,72,0.00,,,0.00,Wunderground v.1.15,2013-01-10 23:08:00,
2013-01-10 18:10:00,39.6,31.7,30.25,SE,138,8.0,9.0,73,0.00,,,0.00,Wunderground v.1.15,2013-01-10 23:10:00,
2013-01-10 18:11:00,39.5,31.6,30.25,SE,143,3.0,9.0,73,0.00,,,0.00,Wunderground v.1.15,2013-01-10 23:11:00,
2013-01-10 18:14:00,39.3,32.0,30.24,SE,142,3.0,9.0,75,0.00,,,0.00,Wunderground v.1.15,2013-01-10 23:14:00,
2013-01-10 18:15:00,39.2,31.9,30.24,ESE,116,6.0,9.0,75,0.00,,,0.00,Wunderground v.1.15,2013-01-10 23:15:00,
2013-01-10 18:17:00,39.1,31.8,30.24,SE,130,4.0,9.0,75,0.00,,,0.00,Wunderground v.1.15,2013-01-10 23:17:00,
2013-01-10 18:19:00,39.0,31.7,30.24,SE,142,3.0,5.0,75,0.00,,,0.00,Wunderground v.1.15,2013-01-10 23:19:00,
2013-01-10 18:20:00,38.9,32.0,30.24,SE,130,3.0,7.0,76,0.00,,,0.00,Wunderground v.1.15,2013-01-10 23:20:00,
2013-01-10 18:22:00,38.9,32.0,30.24,SE,144,8.0,10.0,76,0.00,,,0.00,Wunderground v.1.15,2013-01-10 23:22:00,
2013-01-10 18:24:00,38.8,31.9,30.24,SE,140,3.0,10.0,76,0.00,,,0.00,Wunderground v.1.15,2013-01-10 23:24:00,
2013-01-10 18:26:00,38.7,31.8,30.24,ESE,118,7.0,10.0,76,0.00,,,0.01,Wunderground v.1.15,2013-01-10 23:26:00,
2013-01-10 18:27:00,38.7,31.8,30.24,SE,129,4.0,10.0,76,0.00,,,0.01,Wunderground v.1.15,2013-01-10 23:27:00,
2013-01-10 18:30:00,38.6,32.0,30.24,ESE,121,9.0,9.0,77,0.00,,,0.01,Wunderground v.1.15,2013-01-10 23:30:00,
2013-01-10 18:31:00,38.6,32.0,30.24,SSE,156,4.0,9.0,77,0.00,,,0.01,Wunderground v.1.15,2013-01-10 23:31:00,
2013-01-10 18:32:00,38.6,32.0,30.24,SSE,159,3.0,9.0,77,0.00,,,0.01,Wunderground v.1.15,2013-01-10 23:32:00,
2013-01-10 18:35:00,38.5,31.9,30.24,SE,143,5.0,10.0,77,0.00,,,0.01,Wunderground v.1.15,2013-01-10 23:35:00,
2013-01-10 18:37:00,38.5,32.2,30.24,SE,146,8.0,10.0,78,0.00,,,0.01,Wunderground v.1.15,2013-01-10 23:37:00,
2013-01-10 18:40:00,38.4,32.1,30.24,SE,138,5.0,5.0,78,0.00,,,0.01,Wunderground v.1.15,2013-01-10 23:40:00,
2013-01-10 18:42:00,38.3,32.0,30.23,ESE,110,4.0,7.0,78,0.00,,,0.01,Wunderground v.1.15,2013-01-10 23:42:00,
2013-01-10 18:45:00,38.3,32.4,30.23,SE,132,4.0,10.0,79,0.00,,,0.01,Wunderground v.1.15,2013-01-10 23:45:00,
2013-01-10 18:47:00,38.2,32.6,30.23,SSE,153,4.0,10.0,80,0.00,,,0.01,Wunderground v.1.15,2013-01-10 23:47:00,
2013-01-10 18:48:00,38.2,32.6,30.22,ESE,111,3.0,10.0,80,0.00,,,0.01,Wunderground v.1.15,2013-01-10 23:48:00,
2013-01-10 18:50:00,38.0,32.7,30.23,SE,134,7.0,11.0,81,0.00,,,0.01,Wunderground v.1.15,2013-01-10 23:50:00,
2013-01-10 18:52:00,38.0,32.7,30.22,SSE,153,6.0,11.0,81,0.00,,,0.01,Wunderground v.1.15,2013-01-10 23:52:00,
2013-01-10 18:53:00,37.9,32.6,30.22,SSE,157,2.0,11.0,81,0.00,,,0.01,Wunderground v.1.15,2013-01-10 23:53:00,
2013-01-10 18:56:00,37.8,32.8,30.22,ESE,114,2.0,11.0,82,0.00,,,0.01,Wunderground v.1.15,2013-01-10 23:56:00,
2013-01-10 18:57:00,37.8,32.8,30.22,SE,132,1.0,11.0,82,0.00,,,0.01,Wunderground v.1.15,2013-01-10 23:57:00,
2013-01-10 18:58:00,37.7,33.0,30.22,SE,133,4.0,11.0,83,0.00,,,0.01,Wunderground v.1.15,2013-01-10 23:58:00,
2013-01-10 19:01:00,37.6,32.9,30.21,SSE,162,4.0,6.0,83,0.00,,,0.01,Wunderground v.1.15,2013-01-11 00:01:00,
2013-01-10 19:02:00,37.6,32.9,30.21,ESE,120,4.0,7.0,83,0.00,,,0.01,Wunderground v.1.15,2013-01-11 00:02:00,
2013-01-10 19:03:00,37.5,32.8,30.21,SSE,151,9.0,10.0,83,0.00,,,0.01,Wunderground v.1.15,2013-01-11 00:03:00,
2013-01-10 19:06:00,37.4,32.7,30.20,SE,144,9.0,11.0,83,0.00,,,0.01,Wunderground v.1.15,2013-01-11 00:06:00,
2013-01-10 19:08:00,37.4,33.0,30.20,SE,137,6.0,11.0,84,0.00,,,0.01,Wunderground v.1.15,2013-01-11 00:08:00,
2013-01-10 19:09:00,37.3,32.9,30.20,SE,132,11.0,11.0,84,0.00,,,0.01,Wunderground v.1.15,2013-01-11 00:09:00,
2013-01-10 19:11:00,37.3,32.9,30.20,SSE,149,10.0,12.0,84,0.00,,,0.01,Wunderground v.1.15,2013-01-11 00:11:00,
2013-01-10 19:13:00,37.3,32.9,30.20,SE,141,7.0,12.0,84,0.00,,,0.01,Wunderground v.1.15,2013-01-11 00:13:00,
2013-01-10 19:14:00,37.2,32.8,30.20,SSE,163,5.0,12.0,84,0.00,,,0.01,Wunderground v.1.15,2013-01-11 00:14:00,
2013-01-10 19:16:00,37.3,32.9,30.20,SE,126,4.0,12.0,84,0.00,,,0.01,Wunderground v.1.15,2013-01-11 00:16:00,
2013-01-10 19:18:00,37.2,32.8,30.20,SE,140,5.0,12.0,84,0.00,,,0.01,Wunderground v.1.15,2013-01-11 00:18:00,
2013-01-10 19:19:00,37.3,32.9,30.19,SSE,155,8.0,8.0,84,0.00,,,0.01,Wunderground v.1.15,2013-01-11 00:19:00,
2013-01-10 19:21:00,37.3,32.9,30.19,SE,141,7.0,10.0,84,0.00,,,0.01,Wunderground v.1.15,2013-01-11 00:21:00,
2013-01-10 19:23:00,37.3,32.9,30.19,SE,139,3.0,11.0,84,0.00,,,0.01,Wunderground v.1.15,2013-01-11 00:23:00,
2013-01-10 19:24:00,37.3,32.9,30.19,SSE,161,5.0,11.0,84,0.00,,,0.01,Wunderground v.1.15,2013-01-11 00:24:00,
2013-01-10 19:26:00,37.3,32.9,30.19,SSE,147,5.0,11.0,84,0.00,,,0.01,Wunderground v.1.15,2013-01-11 00:26:00,
2013-01-10 19:28:00,37.3,32.9,30.19,SSE,149,5.0,11.0,84,0.00,,,0.01,Wunderground v.1.15,2013-01-11 00:28:00,
2013-01-10 19:29:00,37.4,32.7,30.19,East,83,4.0,6.0,83,0.00,,,0.01,Wunderground v.1.15,2013-01-11 00:29:00,
2013-01-10 19:31:00,37.4,32.7,30.18,East,86,6.0,11.0,83,0.00,,,0.01,Wunderground v.1.15,2013-01-11 00:31:00,
2013-01-10 19:33:00,37.4,32.7,30.18,SE,144,6.0,11.0,83,0.00,,,0.01,Wunderground v.1.15,2013-01-11 00:33:00,
2013-01-10 19:35:00,37.5,32.8,30.18,SSE,153,9.0,11.0,83,0.00,,,0.01,Wunderground v.1.15,2013-01-11 00:35:00,
2013-01-10 19:36:00,37.5,32.8,30.18,SE,146,5.0,11.0,83,0.00,,,0.01,Wunderground v.1.15,2013-01-11 00:36:00,
2013-01-10 19:38:00,37.5,32.8,30.18,SE,141,8.0,11.0,83,0.00,,,0.01,Wunderground v.1.15,2013-01-11 00:38:00,
2013-01-10 19:40:00,37.5,32.8,30.18,SE,138,9.0,11.0,83,0.00,,,0.01,Wunderground v.1.15,2013-01-11 00:40:00,
2013-01-10 19:41:00,37.5,32.5,30.18,SSE,161,6.0,11.0,82,0.00,,,0.01,Wunderground v.1.15,2013-01-11 00:41:00,
2013-01-10 19:44:00,37.6,32.6,30.17,SE,136,9.0,11.0,82,0.00,,,0.01,Wunderground v.1.15,2013-01-11 00:44:00,
2013-01-10 19:45:00,37.6,32.6,30.17,ESE,123,7.0,11.0,82,0.00,,,0.01,Wunderground v.1.15,2013-01-11 00:45:00,
2013-01-10 19:46:00,37.6,32.6,30.17,ESE,119,1.0,11.0,82,0.00,,,0.01,Wunderground v.1.15,2013-01-11 00:46:00,
2013-01-10 19:50:00,37.6,32.6,30.17,ESE,107,6.0,6.0,82,0.00,,,0.01,Wunderground v.1.15,2013-01-11 00:50:00,
2013-01-10 19:52:00,37.6,32.6,30.17,SSE,160,7.0,7.0,82,0.00,,,0.01,Wunderground v.1.15,2013-01-11 00:52:00,
2013-01-10 19:55:00,37.7,33.0,30.17,SE,142,6.0,11.0,83,0.00,,,0.02,Wunderground v.1.15,2013-01-11 00:55:00,
2013-01-10 19:57:00,37.6,32.9,30.17,SE,132,4.0,11.0,83,0.00,,,0.02,Wunderground v.1.15,2013-01-11 00:57:00,
2013-01-10 20:00:00,37.6,33.2,30.17,ESE,113,5.0,10.0,84,0.00,,,0.02,Wunderground v.1.15,2013-01-11 01:00:00,
2013-01-10 20:01:00,37.6,33.2,30.17,SE,136,6.0,10.0,84,0.00,,,0.02,Wunderground v.1.15,2013-01-11 01:01:00,
2013-01-10 20:02:00,37.5,33.1,30.17,SSE,155,6.0,10.0,84,0.00,,,0.02,Wunderground v.1.15,2013-01-11 01:02:00,
2013-01-10 20:05:00,37.5,33.4,30.16,SSE,159,7.0,10.0,85,0.00,,,0.02,Wunderground v.1.15,2013-01-11 01:05:00,
2013-01-10 20:06:00,37.5,33.4,30.16,SE,138,8.0,10.0,85,0.00,,,0.02,Wunderground v.1.15,2013-01-11 01:06:00,
2013-01-10 20:07:00,37.4,33.3,30.16,SSE,153,10.0,10.0,85,0.00,,,0.02,Wunderground v.1.15,2013-01-11 01:07:00,
2013-01-10 20:10:00,37.3,33.5,30.15,SSE,161,5.0,9.0,86,0.00,,,0.02,Wunderground v.1.15,2013-01-11 01:10:00,
2013-01-10 20:11:00,37.3,33.5,30.15,SSE,151,7.0,10.0,86,0.00,,,0.02,Wunderground v.1.15,2013-01-11 01:11:00,
2013-01-10 20:12:00,37.3,33.5,30.15,ENE,63,5.0,11.0,86,0.00,,,0.02,Wunderground v.1.15,2013-01-11 01:12:00,
2013-01-10 20:15:00,37.2,33.4,30.15,SE,129,7.0,12.0,86,0.00,,,0.02,Wunderground v.1.15,2013-01-11 01:15:00,
2013-01-10 20:16:00,37.2,33.4,30.15,ESE,117,6.0,12.0,86,0.00,,,0.02,Wunderground v.1.15,2013-01-11 01:16:00,
2013-01-10 20:17:00,37.2,33.4,30.15,ESE,113,11.0,13.0,86,0.00,,,0.02,Wunderground v.1.15,2013-01-11 01:17:00,
2013-01-10 20:20:00,37.2,33.4,30.14,SE,128,8.0,14.0,86,0.00,,,0.02,Wunderground v.1.15,2013-01-11 01:20:00,
2013-01-10 20:21:00,37.2,33.4,30.14,SE,131,10.0,14.0,86,0.00,,,0.02,Wunderground v.1.15,2013-01-11 01:21:00,
2013-01-10 20:22:00,37.2,33.4,30.14,SE,144,7.0,14.0,86,0.00,,,0.02,Wunderground v.1.15,2013-01-11 01:22:00,
2013-01-10 20:25:00,37.2,33.4,30.14,SE,133,11.0,14.0,86,0.00,,,0.02,Wunderground v.1.15,2013-01-11 01:25:00,
2013-01-10 20:26:00,37.2,33.4,30.14,SE,136,6.0,14.0,86,0.00,,,0.03,Wunderground v.1.15,2013-01-11 01:26:00,
2013-01-10 20:28:00,37.2,33.7,30.13,SE,125,9.0,14.0,87,0.00,,,0.03,Wunderground v.1.15,2013-01-11 01:28:00,
2013-01-10 20:31:00,37.2,33.7,30.13,SSE,154,9.0,17.0,87,0.00,,,0.03,Wunderground v.1.15,2013-01-11 01:31:00,
2013-01-10 20:33:00,37.1,33.6,30.13,SE,136,10.0,17.0,87,0.00,,,0.03,Wunderground v.1.15,2013-01-11 01:33:00,
2013-01-10 20:36:00,37.2,33.7,30.13,SE,146,5.0,17.0,87,0.00,,,0.03,Wunderground v.1.15,2013-01-11 01:36:00,
2013-01-10 20:39:00,37.2,34.0,30.13,SE,132,10.0,17.0,88,0.00,,,0.03,Wunderground v.1.15,2013-01-11 01:39:00,
2013-01-10 20:41:00,37.2,34.0,30.13,South,186,5.0,12.0,88,0.00,,,0.03,Wunderground v.1.15,2013-01-11 01:41:00,
2013-01-10 20:44:00,37.2,34.0,30.12,East,88,11.0,18.0,88,0.00,,,0.03,Wunderground v.1.15,2013-01-11 01:44:00,
2013-01-10 20:46:00,37.2,34.0,30.12,ESE,113,11.0,20.0,88,0.00,,,0.03,Wunderground v.1.15,2013-01-11 01:46:00,
2013-01-10 20:49:00,37.2,34.0,30.12,SE,133,4.0,20.0,88,0.00,,,0.04,Wunderground v.1.15,2013-01-11 01:49:00,
2013-01-10 20:51:00,37.3,34.1,30.12,SE,130,11.0,15.0,88,0.00,,,0.04,Wunderground v.1.15,2013-01-11 01:51:00,
2013-01-10 20:54:00,37.3,34.4,30.11,SSE,150,10.0,15.0,89,0.00,,,0.04,Wunderground v.1.15,2013-01-11 01:54:00,
2013-01-10 20:56:00,37.2,34.3,30.11,SE,140,6.0,15.0,89,0.07,,,0.05,Wunderground v.1.15,2013-01-11 01:56:00,
2013-01-10 20:57:00,37.2,34.3,30.11,NNE,33,4.0,15.0,89,0.07,,,0.05,Wunderground v.1.15,2013-01-11 01:57:00,
2013-01-10 20:59:00,37.3,34.4,30.10,ENE,75,7.0,15.0,89,0.07,,,0.05,Wunderground v.1.15,2013-01-11 01:59:00,
2013-01-10 21:02:00,37.2,34.3,30.10,SE,133,12.0,12.0,89,0.07,,,0.05,Wunderground v.1.15,2013-01-11 02:02:00,
2013-01-10 21:04:00,37.2,34.3,30.10,SSE,148,10.0,12.0,89,0.07,,,0.05,Wunderground v.1.15,2013-01-11 02:04:00,
2013-01-10 21:07:00,37.2,34.5,30.10,SE,125,10.0,14.0,90,0.06,,,0.05,Wunderground v.1.15,2013-01-11 02:07:00,
2013-01-10 21:09:00,37.2,34.5,30.10,SE,146,6.0,8.0,90,0.04,,,0.05,Wunderground v.1.15,2013-01-11 02:09:00,
2013-01-10 21:12:00,37.2,34.5,30.10,SE,132,11.0,13.0,90,0.04,,,0.06,Wunderground v.1.15,2013-01-11 02:12:00,
2013-01-10 21:14:00,37.2,34.5,30.10,SE,140,10.0,13.0,90,0.04,,,0.06,Wunderground v.1.15,2013-01-11 02:14:00,
2013-01-10 21:17:00,37.3,34.9,30.10,SE,132,10.0,15.0,91,0.04,,,0.06,Wunderground v.1.15,2013-01-11 02:17:00,
2013-01-10 21:19:00,37.3,34.9,30.10,SSE,167,13.0,13.0,91,0.04,,,0.06,Wunderground v.1.15,2013-01-11 02:19:00,
2013-01-10 21:22:00,37.3,34.9,30.10,SE,138,10.0,14.0,91,0.04,,,0.06,Wunderground v.1.15,2013-01-11 02:22:00,
2013-01-10 21:23:00,37.3,34.9,30.10,SE,137,6.0,14.0,91,0.04,,,0.06,Wunderground v.1.15,2013-01-11 02:23:00,
2013-01-10 21:25:00,37.3,34.9,30.10,East,94,10.0,14.0,91,0.04,,,0.06,Wunderground v.1.15,2013-01-11 02:25:00,
2013-01-10 21:27:00,37.3,35.2,30.10,SSE,152,8.0,14.0,92,0.00,,,0.06,Wunderground v.1.15,2013-01-11 02:27:00,
2013-01-10 21:28:00,37.3,35.2,30.10,ESE,123,9.0,14.0,92,0.00,,,0.06,Wunderground v.1.15,2013-01-11 02:28:00,
2013-01-10 21:30:00,37.3,35.2,30.10,SE,136,11.0,13.0,92,0.00,,,0.07,Wunderground v.1.15,2013-01-11 02:30:00,
2013-01-10 21:32:00,37.3,35.2,30.10,SE,145,3.0,13.0,92,0.00,,,0.07,Wunderground v.1.15,2013-01-11 02:32:00,
2013-01-10 21:33:00,37.3,35.2,30.10,SE,138,11.0,13.0,92,0.00,,,0.07,Wunderground v.1.15,2013-01-11 02:33:00,
2013-01-10 21:35:00,37.3,35.2,30.10,East,85,6.0,13.0,92,0.00,,,0.07,Wunderground v.1.15,2013-01-11 02:35:00,
2013-01-10 21:38:00,37.3,35.2,30.09,SSE,163,10.0,13.0,92,0.00,,,0.07,Wunderground v.1.15,2013-01-11 02:38:00,
2013-01-10 21:40:00,37.2,35.1,30.09,SSE,153,12.0,12.0,92,0.06,,,0.08,Wunderground v.1.15,2013-01-11 02:40:00,
2013-01-10 21:43:00,37.2,35.1,30.09,SE,142,13.0,16.0,92,0.31,,,0.09,Wunderground v.1.15,2013-01-11 02:43:00,
2013-01-10 21:44:00,37.1,35.0,30.09,SE,146,9.0,16.0,92,0.27,,,0.09,Wunderground v.1.15,2013-01-11 02:44:00,
2013-01-10 21:46:00,37.1,35.0,30.08,SE,124,11.0,16.0,92,0.15,,,0.09,Wunderground v.1.15,2013-01-11 02:46:00,
2013-01-10 21:48:00,37.1,35.0,30.09,SE,128,10.0,16.0,92,0.09,,,0.09,Wunderground v.1.15,2013-01-11 02:48:00,
2013-01-10 21:49:00,37.1,35.0,30.08,East,86,7.0,16.0,92,0.08,,,0.09,Wunderground v.1.15,2013-01-11 02:49:00,
2013-01-10 21:51:00,37.0,34.9,30.08,South,181,5.0,13.0,92,0.07,,,0.09,Wunderground v.1.15,2013-01-11 02:51:00,
2013-01-10 21:54:00,37.0,35.2,30.08,ESE,117,12.0,15.0,93,0.06,,,0.10,Wunderground v.1.15,2013-01-11 02:54:00,
2013-01-10 21:56:00,37.0,35.2,30.09,ESE,116,8.0,15.0,93,0.06,,,0.10,Wunderground v.1.15,2013-01-11 02:56:00,
2013-01-10 21:59:00,37.0,35.2,30.09,SSE,150,9.0,15.0,93,0.06,,,0.10,Wunderground v.1.15,2013-01-11 02:59:00,
2013-01-10 22:01:00,37.0,35.2,30.09,SSE,160,6.0,13.0,93,0.06,,,0.10,Wunderground v.1.15,2013-01-11 03:01:00,
2013-01-10 22:04:00,37.0,35.2,30.09,SE,124,6.0,13.0,93,0.05,,,0.10,Wunderground v.1.15,2013-01-11 03:04:00,
2013-01-10 22:05:00,37.0,35.2,30.09,SSE,148,7.0,13.0,93,0.04,,,0.10,Wunderground v.1.15,2013-01-11 03:05:00,
2013-01-10 22:06:00,37.0,35.2,30.09,SE,144,11.0,13.0,93,0.04,,,0.10,Wunderground v.1.15,2013-01-11 03:06:00,
2013-01-10 22:09:00,37.0,35.2,30.09,SE,144,7.0,11.0,93,0.00,,,0.10,Wunderground v.1.15,2013-01-11 03:09:00,
2013-01-10 22:10:00,37.0,35.2,30.09,SE,133,11.0,13.0,93,0.00,,,0.10,Wunderground v.1.15,2013-01-11 03:10:00,
2013-01-10 22:11:00,37.0,35.2,30.08,SE,136,9.0,13.0,93,0.00,,,0.10,Wunderground v.1.15,2013-01-11 03:11:00,
2013-01-10 22:14:00,37.0,35.2,30.08,SE,126,10.0,13.0,93,0.00,,,0.10,Wunderground v.1.15,2013-01-11 03:14:00,
2013-01-10 22:15:00,37.0,35.2,30.08,SE,141,7.0,13.0,93,0.00,,,0.10,Wunderground v.1.15,2013-01-11 03:15:00,
2013-01-10 22:16:00,37.0,35.2,30.08,SE,140,10.0,13.0,93,0.00,,,0.10,Wunderground v.1.15,2013-01-11 03:16:00,
2013-01-10 22:20:00,37.0,35.2,30.08,SSE,150,7.0,12.0,93,0.00,,,0.10,Wunderground v.1.15,2013-01-11 03:20:00,
2013-01-10 22:21:00,37.0,35.2,30.08,SSE,150,7.0,12.0,93,0.00,,,0.10,Wunderground v.1.15,2013-01-11 03:21:00,
2013-01-10 22:25:00,37.0,35.2,30.07,SSE,152,7.0,12.0,93,0.00,,,0.10,Wunderground v.1.15,2013-01-11 03:25:00,
2013-01-10 22:26:00,37.0,35.2,30.07,ESE,113,6.0,12.0,93,0.00,,,0.10,Wunderground v.1.15,2013-01-11 03:26:00,
2013-01-10 22:30:00,37.0,35.2,30.07,SE,146,7.0,9.0,93,0.00,,,0.10,Wunderground v.1.15,2013-01-11 03:30:00,
2013-01-10 22:31:00,37.0,35.2,30.07,SSE,153,11.0,11.0,93,0.00,,,0.10,Wunderground v.1.15,2013-01-11 03:31:00,
2013-01-10 22:35:00,37.1,35.3,30.06,SE,136,12.0,13.0,93,0.00,,,0.10,Wunderground v.1.15,2013-01-11 03:35:00,
2013-01-10 22:36:00,37.1,35.3,30.06,SSE,164,3.0,13.0,93,0.00,,,0.10,Wunderground v.1.15,2013-01-11 03:36:00,
2013-01-10 22:41:00,37.1,35.5,30.06,SSE,156,12.0,14.0,94,0.00,,,0.10,Wunderground v.1.15,2013-01-11 03:41:00,
2013-01-10 22:46:00,37.2,35.6,30.06,ESE,122,5.0,14.0,94,0.00,,,0.11,Wunderground v.1.15,2013-01-11 03:46:00,
2013-01-10 22:51:00,37.3,35.7,30.06,SW,223,10.0,12.0,94,0.09,,,0.12,Wunderground v.1.15,2013-01-11 03:51:00,
2013-01-10 22:52:00,37.3,35.7,30.06,SE,134,9.0,13.0,94,0.09,,,0.12,Wunderground v.1.15,2013-01-11 03:52:00,
2013-01-10 22:56:00,37.3,35.7,30.04,SE,137,12.0,16.0,94,0.07,,,0.12,Wunderground v.1.15,2013-01-11 03:56:00,
2013-01-10 22:57:00,37.3,35.7,30.04,SSE,163,7.0,16.0,94,0.07,,,0.12,Wunderground v.1.15,2013-01-11 03:57:00,
2013-01-10 23:01:00,37.3,35.7,30.03,ENE,63,2.0,12.0,94,0.05,,,0.12,Wunderground v.1.15,2013-01-11 04:01:00,
2013-01-10 23:02:00,37.3,35.7,30.03,SE,143,14.0,16.0,94,0.04,,,0.12,Wunderground v.1.15,2013-01-11 04:02:00,
2013-01-10 23:06:00,37.2,35.6,30.03,SSE,168,4.0,16.0,94,0.35,,,0.14,Wunderground v.1.15,2013-01-11 04:06:00,
2013-01-10 23:07:00,37.2,35.9,30.03,SE,133,7.0,16.0,95,0.25,,,0.14,Wunderground v.1.15,2013-01-11 04:07:00,
2013-01-10 23:11:00,37.2,35.9,30.03,SSE,151,7.0,11.0,95,0.25,,,0.16,Wunderground v.1.15,2013-01-11 04:11:00,
2013-01-10 23:12:00,37.2,35.9,30.03,SE,140,13.0,13.0,95,0.24,,,0.16,Wunderground v.1.15,2013-01-11 04:12:00,
2013-01-10 23:16:00,37.2,35.9,30.04,SE,133,6.0,13.0,95,0.09,,,0.16,Wunderground v.1.15,2013-01-11 04:16:00,
2013-01-10 23:17:00,37.2,35.9,30.04,SE,142,6.0,13.0,95,0.08,,,0.16,Wunderground v.1.15,2013-01-11 04:17:00,
2013-01-10 23:18:00,37.2,35.9,30.04,SE,146,10.0,13.0,95,0.08,,,0.16,Wunderground v.1.15,2013-01-11 04:18:00,
2013-01-10 23:22:00,37.2,35.9,30.04,SE,135,12.0,13.0,95,0.05,,,0.16,Wunderground v.1.15,2013-01-11 04:22:00,
2013-01-10 23:23:00,37.2,35.9,30.04,SSE,153,7.0,13.0,95,0.05,,,0.16,Wunderground v.1.15,2013-01-11 04:23:00,
2013-01-10 23:27:00,37.2,35.9,30.03,SE,144,6.0,17.0,95,0.00,,,0.16,Wunderground v.1.15,2013-01-11 04:27:00,
2013-01-10 23:28:00,37.2,35.9,30.03,ESE,123,7.0,17.0,95,0.00,,,0.16,Wunderground v.1.15,2013-01-11 04:28:00,
2013-01-10 23:32:00,37.2,35.9,30.04,SE,132,9.0,14.0,95,0.00,,,0.18,Wunderground v.1.15,2013-01-11 04:32:00,
2013-01-10 23:33:00,37.2,35.9,30.04,SE,140,10.0,14.0,95,1.55,,,0.18,Wunderground v.1.15,2013-01-11 04:33:00,
2013-01-10 23:38:00,37.2,35.9,30.03,SE,142,4.0,14.0,95,0.26,,,0.20,Wunderground v.1.15,2013-01-11 04:38:00,
2013-01-10 23:39:00,37.2,35.9,30.03,SE,144,7.0,14.0,95,0.29,,,0.21,Wunderground v.1.15,2013-01-11 04:39:00,
2013-01-10 23:43:00,37.3,36.3,30.03,ESE,117,13.0,14.0,96,0.81,,,0.23,Wunderground v.1.15,2013-01-11 04:43:00,
2013-01-10 23:44:00,37.3,36.3,30.03,SSE,156,12.0,14.0,96,0.60,,,0.24,Wunderground v.1.15,2013-01-11 04:44:00,
2013-01-10 23:48:00,37.3,36.3,30.02,SE,145,6.0,14.0,96,0.28,,,0.27,Wunderground v.1.15,2013-01-11 04:48:00,
2013-01-10 23:49:00,37.3,36.3,30.02,ESE,121,9.0,14.0,96,0.22,,,0.27,Wunderground v.1.15,2013-01-11 04:49:00,
2013-01-10 23:53:00,37.4,36.4,30.01,SE,141,7.0,16.0,96,0.17,,,0.28,Wunderground v.1.15,2013-01-11 04:53:00,
2013-01-10 23:54:00,37.4,36.4,30.02,SE,130,12.0,16.0,96,0.14,,,0.28,Wunderground v.1.15,2013-01-11 04:54:00,
2013-01-10 23:59:00,37.4,36.4,30.01,ESE,115,11.0,17.0,96,0.07,,,0.28,Wunderground v.1.15,2013-01-11 04:59:00,